PWSweather.com
Personal Weather Stations
Station Observations
RHPWSHOR1
Lostock, BoltonGB

LostockBoltonGB

Lat: 53.58073044, Lon: -2.52344131

Elevation: 389

Station Type: Oregon Scientific WMR100

Latest ConditionsUpdated 7:53:19 AM GMT Thursday, Jul 18, 2019
Currently Today's Max Today's Min Today's Average
Temperature 62.2°F16.8°C 66.9°F19.4°C 58.3°F14.6°C 60.2°F15.7°C
Dew Point 37.0°F2.8°C 52.0°F11.1°C 35.0°F1.7°C 42.8°F6.0°C
Winds 1.1 mph SSW1.8 kmh SSW 7.8 mph -12.6 kmh - - 1.3 mph 2.1 kmh
Wind Gusts 2.5 mph4.0 kmh 7.8 mph12.6 kmh - -
Humidity 39% 64% 35% 53%
Pressure 29.26 in990.9 mb 29.26 in990.9 mb 29.23 in989.8 mb -
Hour Temp Dew Point Humidity Winds Wind Gusts Pressure Precip Precip Rate Daily Precip Total
07:53 AM 62.2°F16.8°C 37.0°F2.8°C 39% 1.1 mph SSW1.8 kmh SSW 2.5 mph4.0 kmh 29.26 in990.9 mb 0.00 in0.0 mm 0.00 in0.0 mm 0.04 in1.0 mm
07:51 AM 62.6°F17.0°C 37.3°F2.9°C 39% 3.6 mph SSE5.8 kmh SSE 3.6 mph5.8 kmh 29.26 in990.9 mb 0.00 in0.0 mm 0.00 in0.0 mm 0.04 in1.0 mm
07:50 AM 62.6°F17.0°C 37.3°F2.9°C 39% 4.0 mph SSE6.4 kmh SSE 4.0 mph6.4 kmh 29.26 in990.9 mb 0.00 in0.0 mm 0.00 in0.0 mm 0.04 in1.0 mm
07:49 AM 62.8°F17.1°C 37.5°F3.1°C 39% 2.0 mph SSE3.2 kmh SSE 2.0 mph3.2 kmh 29.26 in990.9 mb 0.00 in0.0 mm 0.00 in0.0 mm 0.04 in1.0 mm
07:47 AM 63.0°F17.2°C 37.6°F3.1°C 39% 3.4 mph SSW5.5 kmh SSW 3.4 mph5.5 kmh 29.26 in990.9 mb 0.00 in0.0 mm 0.00 in0.0 mm 0.04 in1.0 mm
07:46 AM 63.0°F17.2°C 37.6°F3.1°C 39% 4.9 mph SSW7.9 kmh SSW 4.9 mph7.9 kmh 29.26 in990.9 mb 0.00 in0.0 mm 0.00 in0.0 mm 0.04 in1.0 mm
07:45 AM 63.0°F17.2°C 37.6°F3.1°C 39% 2.2 mph SSW3.5 kmh SSW 2.2 mph3.5 kmh 29.26 in990.9 mb 0.00 in0.0 mm 0.00 in0.0 mm 0.04 in1.0 mm
07:44 AM 62.8°F17.1°C 36.8°F2.7°C 38% 1.1 mph W1.8 kmh W 2.5 mph4.0 kmh 29.26 in990.9 mb 0.00 in0.0 mm 0.00 in0.0 mm 0.04 in1.0 mm
07:43 AM 62.8°F17.1°C 36.8°F2.7°C 38% 6.0 mph S9.7 kmh S 6.0 mph9.7 kmh 29.26 in990.9 mb 0.00 in0.0 mm 0.00 in0.0 mm 0.04 in1.0 mm
07:42 AM 62.6°F17.0°C 36.7°F2.6°C 38% 4.7 mph SSW7.6 kmh SSW 4.7 mph7.6 kmh 29.26 in990.9 mb 0.00 in0.0 mm 0.00 in0.0 mm 0.04 in1.0 mm
07:41 AM 62.6°F17.0°C 36.7°F2.6°C 38% 2.9 mph W4.7 kmh W 7.8 mph12.6 kmh 29.26 in990.9 mb 0.00 in0.0 mm 0.00 in0.0 mm 0.04 in1.0 mm
07:40 AM 62.2°F16.8°C 35.7°F2.1°C 37% 2.0 mph SSW3.2 kmh SSW 2.0 mph3.2 kmh 29.26 in990.9 mb 0.00 in0.0 mm 0.00 in0.0 mm 0.04 in1.0 mm
07:38 AM 62.2°F16.8°C 35.7°F2.1°C 37% 1.3 mph SSE2.1 kmh SSE 1.3 mph2.1 kmh 29.26 in990.9 mb 0.00 in0.0 mm 0.00 in0.0 mm 0.04 in1.0 mm
07:37 AM 62.2°F16.8°C 35.7°F2.1°C 37% 4.9 mph SSE7.9 kmh SSE 4.9 mph7.9 kmh 29.26 in990.9 mb 0.00 in0.0 mm 0.00 in0.0 mm 0.04 in1.0 mm
07:36 AM 62.2°F16.8°C 35.7°F2.1°C 37% 1.3 mph W2.1 kmh W 3.8 mph6.1 kmh 29.26 in990.9 mb 0.00 in0.0 mm 0.00 in0.0 mm 0.04 in1.0 mm
07:35 AM 62.2°F16.8°C 35.7°F2.1°C 37% Calm Calm -- 29.26 in990.9 mb 0.00 in0.0 mm 0.00 in0.0 mm 0.04 in1.0 mm
07:34 AM 62.2°F16.8°C 35.0°F1.7°C 36% 2.5 mph NW4.0 kmh NW 2.5 mph4.0 kmh 29.26 in990.9 mb 0.00 in0.0 mm 0.00 in0.0 mm 0.04 in1.0 mm
07:33 AM 62.2°F16.8°C 35.0°F1.7°C 36% 2.5 mph S4.0 kmh S 2.5 mph4.0 kmh 29.26 in990.9 mb 0.00 in0.0 mm 0.00 in0.0 mm 0.04 in1.0 mm
07:31 AM 62.8°F17.1°C 35.5°F1.9°C 36% 2.2 mph SSW3.5 kmh SSW 2.2 mph3.5 kmh 29.26 in990.9 mb 0.00 in0.0 mm 0.00 in0.0 mm 0.04 in1.0 mm
07:30 AM 62.8°F17.1°C 35.5°F1.9°C 36% 2.5 mph S4.0 kmh S 2.5 mph4.0 kmh 29.26 in990.9 mb 0.00 in0.0 mm 0.00 in0.0 mm 0.04 in1.0 mm
07:29 AM 63.0°F17.2°C 35.6°F2.0°C 36% 2.7 mph SSW4.3 kmh SSW 2.9 mph4.7 kmh 29.26 in990.9 mb 0.00 in0.0 mm 0.00 in0.0 mm 0.04 in1.0 mm
07:28 AM 63.1°F17.3°C 35.8°F2.1°C 36% 3.6 mph WSW5.8 kmh WSW 3.6 mph5.8 kmh 29.26 in990.9 mb 0.00 in0.0 mm 0.00 in0.0 mm 0.04 in1.0 mm
07:27 AM 63.3°F17.4°C 35.9°F2.2°C 36% 6.3 mph WNW10.1 kmh WNW 6.3 mph10.1 kmh 29.26 in990.9 mb 0.00 in0.0 mm 0.00 in0.0 mm 0.04 in1.0 mm
07:26 AM 63.5°F17.5°C 36.1°F2.3°C 36% 2.2 mph S3.5 kmh S 2.2 mph3.5 kmh 29.26 in990.9 mb 0.00 in0.0 mm 0.00 in0.0 mm 0.04 in1.0 mm
07:25 AM 63.5°F17.5°C 36.1°F2.3°C 36% 4.7 mph S7.6 kmh S 4.7 mph7.6 kmh 29.26 in990.9 mb 0.00 in0.0 mm 0.00 in0.0 mm 0.04 in1.0 mm
07:24 AM 63.5°F17.5°C 36.1°F2.3°C 36% 2.9 mph ENE4.7 kmh ENE 2.9 mph4.7 kmh 29.26 in990.9 mb 0.00 in0.0 mm 0.00 in0.0 mm 0.04 in1.0 mm
07:22 AM 63.7°F17.6°C 35.5°F1.9°C 35% 2.0 mph S3.2 kmh S 2.0 mph3.2 kmh 29.26 in990.9 mb 0.00 in0.0 mm 0.00 in0.0 mm 0.04 in1.0 mm
07:21 AM 63.9°F17.7°C 36.4°F2.4°C 36% 2.0 mph SSW3.2 kmh SSW 2.0 mph3.2 kmh 29.26 in990.9 mb 0.00 in0.0 mm 0.00 in0.0 mm 0.04 in1.0 mm
07:20 AM 64.0°F17.8°C 36.6°F2.6°C 36% 7.8 mph S12.6 kmh S 7.8 mph12.6 kmh 29.26 in990.9 mb 0.00 in0.0 mm 0.00 in0.0 mm 0.04 in1.0 mm
07:19 AM 64.2°F17.9°C 36.7°F2.6°C 36% 2.9 mph WSW4.7 kmh WSW 2.9 mph4.7 kmh 29.26 in990.9 mb 0.00 in0.0 mm 0.00 in0.0 mm 0.04 in1.0 mm
07:18 AM 64.4°F18.0°C 36.2°F2.3°C 35% 2.5 mph W4.0 kmh W 2.5 mph4.0 kmh 29.26 in990.9 mb 0.00 in0.0 mm 0.00 in0.0 mm 0.04 in1.0 mm
07:17 AM 65.1°F18.4°C 37.5°F3.1°C 36% 2.0 mph S3.2 kmh S 2.0 mph3.2 kmh 29.26 in990.9 mb 0.00 in0.0 mm 0.00 in0.0 mm 0.04 in1.0 mm
07:16 AM 65.1°F18.4°C 37.5°F3.1°C 36% 1.6 mph WNW2.6 kmh WNW 2.9 mph4.7 kmh 29.26 in990.9 mb 0.00 in0.0 mm 0.00 in0.0 mm 0.04 in1.0 mm
07:15 AM 65.3°F18.5°C 37.7°F3.2°C 36% 2.2 mph WNW3.5 kmh WNW 2.9 mph4.7 kmh 29.26 in990.9 mb 0.00 in0.0 mm 0.00 in0.0 mm 0.04 in1.0 mm
07:14 AM 66.2°F19.0°C 39.9°F4.4°C 38% 5.4 mph SSW8.7 kmh SSW 5.4 mph8.7 kmh 29.26 in990.9 mb 0.00 in0.0 mm 0.00 in0.0 mm 0.04 in1.0 mm
07:13 AM 66.2°F19.0°C 39.9°F4.4°C 38% 7.2 mph WSW11.6 kmh WSW 7.2 mph11.6 kmh 29.26 in990.9 mb 0.00 in0.0 mm 0.00 in0.0 mm 0.04 in1.0 mm
07:12 AM 66.4°F19.1°C 40.0°F4.4°C 38% 1.3 mph 2.1 kmh 3.8 mph6.1 kmh 29.26 in990.9 mb 0.00 in0.0 mm 0.00 in0.0 mm 0.04 in1.0 mm
07:11 AM 66.6°F19.2°C 40.2°F4.6°C 38% Calm Calm -- 29.26 in990.9 mb 0.00 in0.0 mm 0.00 in0.0 mm 0.04 in1.0 mm
07:10 AM 66.9°F19.4°C 41.8°F5.4°C 40% Calm Calm 2.0 mph3.2 kmh 29.26 in990.9 mb 0.00 in0.0 mm 0.00 in0.0 mm 0.04 in1.0 mm
07:08 AM 66.9°F19.4°C 41.8°F5.4°C 40% 2.2 mph ENE3.5 kmh ENE 2.2 mph3.5 kmh 29.26 in990.9 mb 0.00 in0.0 mm 0.00 in0.0 mm 0.04 in1.0 mm
07:07 AM 66.7°F19.3°C 41.7°F5.4°C 40% 1.1 mph SSW1.8 kmh SSW 3.1 mph5.0 kmh 29.26 in990.9 mb 0.00 in0.0 mm 0.00 in0.0 mm 0.04 in1.0 mm
07:05 AM 66.4°F19.1°C 40.7°F4.8°C 39% 4.0 mph SSE6.4 kmh SSE 4.0 mph6.4 kmh 29.26 in990.9 mb 0.00 in0.0 mm 0.00 in0.0 mm 0.04 in1.0 mm
07:04 AM 66.4°F19.1°C 40.7°F4.8°C 39% 4.0 mph SSE6.4 kmh SSE 4.0 mph6.4 kmh 29.26 in990.9 mb 0.00 in0.0 mm 0.00 in0.0 mm 0.04 in1.0 mm
07:03 AM 66.2°F19.0°C 41.8°F5.4°C 41% 1.1 mph SSE1.8 kmh SSE 2.0 mph3.2 kmh 29.26 in990.9 mb 0.00 in0.0 mm 0.00 in0.0 mm 0.04 in1.0 mm
07:02 AM 65.8°F18.8°C 42.1°F5.6°C 42% 2.5 mph ESE4.0 kmh ESE 2.5 mph4.0 kmh 29.26 in990.9 mb 0.00 in0.0 mm 0.00 in0.0 mm 0.04 in1.0 mm
07:01 AM 65.8°F18.8°C 42.1°F5.6°C 42% 3.1 mph SW5.0 kmh SW 3.1 mph5.0 kmh 29.26 in990.9 mb 0.00 in0.0 mm 0.00 in0.0 mm 0.04 in1.0 mm
07:00 AM 66.2°F19.0°C 42.5°F5.8°C 42% 2.2 mph WNW3.5 kmh WNW 3.8 mph6.1 kmh 29.26 in990.9 mb 0.00 in0.0 mm 0.00 in0.0 mm 0.04 in1.0 mm
06:59 AM 66.0°F18.9°C 42.3°F5.7°C 42% 2.0 mph SW3.2 kmh SW 2.5 mph4.0 kmh 29.26 in990.9 mb 0.00 in0.0 mm 0.00 in0.0 mm 0.04 in1.0 mm
06:58 AM 66.4°F19.1°C 43.8°F6.6°C 44% 3.1 mph WSW5.0 kmh WSW 3.1 mph5.0 kmh 29.26 in990.9 mb 0.00 in0.0 mm 0.00 in0.0 mm 0.04 in1.0 mm
06:57 AM 66.6°F19.2°C 44.6°F7.0°C 45% 2.5 mph WSW4.0 kmh WSW 3.1 mph5.0 kmh 29.26 in990.9 mb 0.00 in0.0 mm 0.00 in0.0 mm 0.04 in1.0 mm
06:56 AM 66.4°F19.1°C 44.4°F6.9°C 45% 1.6 mph WNW2.6 kmh WNW 1.6 mph2.6 kmh 29.26 in990.9 mb 0.00 in0.0 mm 0.00 in0.0 mm 0.04 in1.0 mm
06:55 AM 66.0°F18.9°C 44.1°F6.7°C 45% 3.1 mph WNW5.0 kmh WNW 3.1 mph5.0 kmh 29.26 in990.9 mb 0.00 in0.0 mm 0.00 in0.0 mm 0.04 in1.0 mm
06:54 AM 65.8°F18.8°C 44.5°F6.9°C 46% 1.3 mph SSE2.1 kmh SSE 2.2 mph3.5 kmh 29.26 in990.9 mb 0.00 in0.0 mm 0.00 in0.0 mm 0.04 in1.0 mm
06:53 AM 65.8°F18.8°C 45.1°F7.3°C 47% 1.6 mph S2.6 kmh S 1.6 mph2.6 kmh 29.26 in990.9 mb 0.00 in0.0 mm 0.00 in0.0 mm 0.04 in1.0 mm
06:52 AM 65.7°F18.7°C 44.9°F7.2°C 47% Calm Calm 2.0 mph3.2 kmh 29.26 in990.9 mb 0.00 in0.0 mm 0.00 in0.0 mm 0.04 in1.0 mm
06:50 AM 65.5°F18.6°C 45.3°F7.4°C 48% 1.6 mph WNW2.6 kmh WNW 1.6 mph2.6 kmh 29.26 in990.9 mb 0.00 in0.0 mm 0.00 in0.0 mm 0.04 in1.0 mm
06:48 AM 65.7°F18.7°C 46.0°F7.8°C 49% 1.6 mph SSW2.6 kmh SSW 4.3 mph6.9 kmh 29.26 in990.9 mb 0.00 in0.0 mm 0.00 in0.0 mm 0.04 in1.0 mm
06:47 AM 65.7°F18.7°C 47.1°F8.4°C 51% 5.8 mph NNW9.3 kmh NNW 5.8 mph9.3 kmh 29.26 in990.9 mb 0.00 in0.0 mm 0.00 in0.0 mm 0.04 in1.0 mm
06:46 AM 65.5°F18.6°C 48.4°F9.1°C 54% 2.5 mph SW4.0 kmh SW 3.4 mph5.5 kmh 29.26 in990.9 mb 0.00 in0.0 mm 0.00 in0.0 mm 0.04 in1.0 mm
06:45 AM 65.5°F18.6°C 49.9°F9.9°C 57% 3.1 mph SSW5.0 kmh SSW 3.1 mph5.0 kmh 29.26 in990.9 mb 0.00 in0.0 mm 0.00 in0.0 mm 0.04 in1.0 mm
06:44 AM 65.3°F18.5°C 52.0°F11.1°C 62% 2.9 mph WNW4.7 kmh WNW 2.9 mph4.7 kmh 29.26 in990.9 mb 0.00 in0.0 mm 0.00 in0.0 mm 0.04 in1.0 mm
06:42 AM 64.6°F18.1°C 51.3°F10.7°C 62% 3.6 mph SSE5.8 kmh SSE 3.6 mph5.8 kmh 29.26 in990.9 mb 0.00 in0.0 mm 0.00 in0.0 mm 0.04 in1.0 mm
06:41 AM 64.2°F17.9°C 50.9°F10.5°C 62% 1.3 mph NNW2.1 kmh NNW 1.3 mph2.1 kmh 29.26 in990.9 mb 0.00 in0.0 mm 0.00 in0.0 mm 0.04 in1.0 mm
06:40 AM 63.9°F17.7°C 50.2°F10.1°C 61% Calm Calm -- 29.26 in990.9 mb 0.00 in0.0 mm 0.00 in0.0 mm 0.04 in1.0 mm
06:39 AM 63.1°F17.3°C 49.0°F9.4°C 60% 1.1 mph NNW1.8 kmh NNW 2.2 mph3.5 kmh 29.26 in990.9 mb 0.00 in0.0 mm 0.00 in0.0 mm 0.04 in1.0 mm
06:38 AM 63.0°F17.2°C 48.4°F9.1°C 59% 1.3 mph ENE2.1 kmh ENE 2.9 mph4.7 kmh 29.26 in990.9 mb 0.00 in0.0 mm 0.00 in0.0 mm 0.04 in1.0 mm
06:37 AM 62.6°F17.0°C 47.6°F8.7°C 58% 1.3 mph SE2.1 kmh SE 2.9 mph4.7 kmh 29.26 in990.9 mb 0.00 in0.0 mm 0.00 in0.0 mm 0.04 in1.0 mm
06:36 AM 62.4°F16.9°C 47.0°F8.3°C 57% 2.9 mph S4.7 kmh S 6.3 mph10.1 kmh 29.26 in990.9 mb 0.00 in0.0 mm 0.00 in0.0 mm 0.04 in1.0 mm
06:35 AM 62.2°F16.8°C 46.4°F8.0°C 56% 1.6 mph SSW2.6 kmh SSW 1.6 mph2.6 kmh 29.26 in990.9 mb 0.00 in0.0 mm 0.00 in0.0 mm 0.04 in1.0 mm
06:33 AM 62.2°F16.8°C 49.1°F9.5°C 62% 1.1 mph ENE1.8 kmh ENE 1.6 mph2.6 kmh 29.26 in990.9 mb 0.00 in0.0 mm 0.00 in0.0 mm 0.04 in1.0 mm
06:32 AM 62.2°F16.8°C 49.5°F9.7°C 63% 1.3 mph WSW2.1 kmh WSW 2.0 mph3.2 kmh 29.26 in990.9 mb 0.00 in0.0 mm 0.00 in0.0 mm 0.04 in1.0 mm
06:30 AM 61.9°F16.6°C 48.7°F9.3°C 62% 1.3 mph SSW2.1 kmh SSW 1.3 mph2.1 kmh 29.26 in990.9 mb 0.00 in0.0 mm 0.00 in0.0 mm 0.04 in1.0 mm
06:29 AM 61.9°F16.6°C 49.6°F9.8°C 64% 6.0 mph SSW9.7 kmh SSW 6.5 mph10.5 kmh 29.26 in990.9 mb 0.00 in0.0 mm 0.00 in0.0 mm 0.04 in1.0 mm
06:28 AM 60.6°F15.9°C 45.8°F7.7°C 58% 1.3 mph SSW2.1 kmh SSW 1.3 mph2.1 kmh 29.26 in990.9 mb 0.00 in0.0 mm 0.00 in0.0 mm 0.04 in1.0 mm
06:26 AM 60.6°F15.9°C 45.8°F7.7°C 58% 0.9 mph WNW1.4 kmh WNW 0.9 mph1.4 kmh 29.26 in990.9 mb 0.00 in0.0 mm 0.00 in0.0 mm 0.04 in1.0 mm
06:25 AM 60.6°F15.9°C 45.8°F7.7°C 58% 1.1 mph SSW1.8 kmh SSW 1.1 mph1.8 kmh 29.26 in990.9 mb 0.00 in0.0 mm 0.00 in0.0 mm 0.04 in1.0 mm
06:24 AM 60.3°F15.7°C 44.5°F6.9°C 56% Calm Calm -- 29.26 in990.9 mb 0.00 in0.0 mm 0.00 in0.0 mm 0.04 in1.0 mm
06:23 AM 60.3°F15.7°C 44.5°F6.9°C 56% Calm Calm -- 29.26 in990.9 mb 0.00 in0.0 mm 0.00 in0.0 mm 0.04 in1.0 mm
06:22 AM 60.3°F15.7°C 45.4°F7.4°C 58% 1.3 mph SW2.1 kmh SW 1.3 mph2.1 kmh 29.26 in990.9 mb 0.00 in0.0 mm 0.00 in0.0 mm 0.04 in1.0 mm
06:21 AM 60.3°F15.7°C 45.4°F7.4°C 58% 4.3 mph SW6.9 kmh SW 4.3 mph6.9 kmh 29.26 in990.9 mb 0.00 in0.0 mm 0.00 in0.0 mm 0.04 in1.0 mm
06:20 AM 60.3°F15.7°C 45.4°F7.4°C 58% 1.1 mph S1.8 kmh S 1.1 mph1.8 kmh 29.26 in990.9 mb 0.00 in0.0 mm 0.00 in0.0 mm 0.04 in1.0 mm
06:19 AM 60.3°F15.7°C 45.9°F7.7°C 59% 1.3 mph SSW2.1 kmh SSW 1.3 mph2.1 kmh 29.26 in990.9 mb 0.00 in0.0 mm 0.00 in0.0 mm 0.04 in1.0 mm
06:18 AM 60.3°F15.7°C 45.9°F7.7°C 59% 0.9 mph NW1.4 kmh NW 0.9 mph1.4 kmh 29.26 in990.9 mb 0.00 in0.0 mm 0.00 in0.0 mm 0.04 in1.0 mm
06:17 AM 60.3°F15.7°C 47.2°F8.4°C 62% 0.9 mph SSW1.4 kmh SSW 0.9 mph1.4 kmh 29.26 in990.9 mb 0.00 in0.0 mm 0.00 in0.0 mm 0.04 in1.0 mm
06:16 AM 60.3°F15.7°C 47.2°F8.4°C 62% Calm Calm 2.7 mph4.3 kmh 29.26 in990.9 mb 0.00 in0.0 mm 0.00 in0.0 mm 0.04 in1.0 mm
06:14 AM 60.3°F15.7°C 48.1°F8.9°C 64% Calm Calm 0.9 mph1.4 kmh 29.26 in990.9 mb 0.00 in0.0 mm 0.00 in0.0 mm 0.04 in1.0 mm
06:13 AM 60.3°F15.7°C 48.1°F8.9°C 64% Calm Calm -- 29.26 in990.9 mb 0.00 in0.0 mm 0.00 in0.0 mm 0.04 in1.0 mm
06:11 AM 59.9°F15.5°C 46.9°F8.3°C 62% Calm Calm -- 29.26 in990.9 mb 0.00 in0.0 mm 0.00 in0.0 mm 0.04 in1.0 mm
06:09 AM 59.2°F15.1°C 44.4°F6.9°C 58% 0.9 mph WNW1.4 kmh WNW 0.9 mph1.4 kmh 29.26 in990.9 mb 0.00 in0.0 mm 0.00 in0.0 mm 0.04 in1.0 mm
06:08 AM 59.0°F15.0°C 43.8°F6.6°C 57% 2.9 mph SSW4.7 kmh SSW 2.9 mph4.7 kmh 29.26 in990.9 mb 0.00 in0.0 mm 0.00 in0.0 mm 0.04 in1.0 mm
06:06 AM 59.0°F15.0°C 43.8°F6.6°C 57% 1.1 mph SSW1.8 kmh SSW 2.9 mph4.7 kmh 29.26 in990.9 mb 0.00 in0.0 mm 0.00 in0.0 mm 0.04 in1.0 mm
06:05 AM 58.8°F14.9°C 43.6°F6.4°C 57% Calm Calm -- 29.26 in990.9 mb 0.00 in0.0 mm 0.00 in0.0 mm 0.04 in1.0 mm
06:04 AM 58.8°F14.9°C 43.6°F6.4°C 57% 1.1 mph WNW1.8 kmh WNW 1.1 mph1.8 kmh 29.26 in990.9 mb 0.00 in0.0 mm 0.00 in0.0 mm 0.04 in1.0 mm
06:03 AM 58.8°F14.9°C 43.6°F6.4°C 57% Calm Calm 1.1 mph1.8 kmh 29.26 in990.9 mb 0.00 in0.0 mm 0.00 in0.0 mm 0.04 in1.0 mm
06:02 AM 58.6°F14.8°C 43.5°F6.4°C 57% 1.3 mph S2.1 kmh S 2.2 mph3.5 kmh 29.26 in990.9 mb 0.00 in0.0 mm 0.00 in0.0 mm 0.04 in1.0 mm
06:01 AM 58.8°F14.9°C 43.6°F6.4°C 57% 3.8 mph SSW6.1 kmh SSW 3.8 mph6.1 kmh 29.26 in990.9 mb 0.00 in0.0 mm 0.00 in0.0 mm 0.04 in1.0 mm
06:00 AM 58.8°F14.9°C 43.6°F6.4°C 57% 2.7 mph SSW4.3 kmh SSW 3.6 mph5.8 kmh 29.26 in990.9 mb 0.00 in0.0 mm 0.00 in0.0 mm 0.04 in1.0 mm
05:59 AM 58.8°F14.9°C 43.6°F6.4°C 57% 4.0 mph SSW6.4 kmh SSW 4.0 mph6.4 kmh 29.26 in990.9 mb 0.00 in0.0 mm 0.00 in0.0 mm 0.04 in1.0 mm
05:58 AM 59.0°F15.0°C 43.8°F6.6°C 57% 3.6 mph WSW5.8 kmh WSW 3.8 mph6.1 kmh 29.26 in990.9 mb 0.00 in0.0 mm 0.00 in0.0 mm 0.04 in1.0 mm
05:56 AM 59.0°F15.0°C 43.8°F6.6°C 57% 2.9 mph SSW4.7 kmh SSW 3.6 mph5.8 kmh 29.26 in990.9 mb 0.00 in0.0 mm 0.00 in0.0 mm 0.04 in1.0 mm
05:55 AM 59.0°F15.0°C 44.3°F6.8°C 58% 2.5 mph SSW4.0 kmh SSW 2.5 mph4.0 kmh 29.26 in990.9 mb 0.00 in0.0 mm 0.00 in0.0 mm 0.04 in1.0 mm
05:54 AM 59.0°F15.0°C 44.3°F6.8°C 58% 2.7 mph SSW4.3 kmh SSW 2.7 mph4.3 kmh 29.26 in990.9 mb 0.00 in0.0 mm 0.00 in0.0 mm 0.04 in1.0 mm
05:52 AM 59.0°F15.0°C 44.3°F6.8°C 58% 1.3 mph W2.1 kmh W 1.3 mph2.1 kmh 29.26 in990.9 mb 0.00 in0.0 mm 0.00 in0.0 mm 0.04 in1.0 mm
05:51 AM 59.0°F15.0°C 44.3°F6.8°C 58% 1.1 mph WNW1.8 kmh WNW 2.5 mph4.0 kmh 29.26 in990.9 mb 0.00 in0.0 mm 0.00 in0.0 mm 0.04 in1.0 mm
05:50 AM 58.8°F14.9°C 44.1°F6.7°C 58% 1.1 mph WSW1.8 kmh WSW 1.1 mph1.8 kmh 29.26 in990.9 mb 0.00 in0.0 mm 0.00 in0.0 mm 0.04 in1.0 mm
05:49 AM 58.8°F14.9°C 44.1°F6.7°C 58% Calm Calm -- 29.26 in990.9 mb 0.00 in0.0 mm 0.00 in0.0 mm 0.04 in1.0 mm
05:48 AM 58.8°F14.9°C 44.1°F6.7°C 58% 1.1 mph S1.8 kmh S 2.5 mph4.0 kmh 29.26 in990.9 mb 0.00 in0.0 mm 0.00 in0.0 mm 0.04 in1.0 mm
05:47 AM 58.8°F14.9°C 43.6°F6.4°C 57% Calm Calm 0.9 mph1.4 kmh 29.26 in990.9 mb 0.00 in0.0 mm 0.00 in0.0 mm 0.04 in1.0 mm
05:46 AM 58.8°F14.9°C 43.6°F6.4°C 57% 2.0 mph S3.2 kmh S 2.0 mph3.2 kmh 29.26 in990.9 mb 0.00 in0.0 mm 0.00 in0.0 mm 0.04 in1.0 mm
05:45 AM 58.8°F14.9°C 44.1°F6.7°C 58% 1.6 mph S2.6 kmh S 1.6 mph2.6 kmh 29.26 in990.9 mb 0.00 in0.0 mm 0.00 in0.0 mm 0.04 in1.0 mm
05:44 AM 58.8°F14.9°C 44.1°F6.7°C 58% 1.6 mph SSW2.6 kmh SSW 2.9 mph4.7 kmh 29.26 in990.9 mb 0.00 in0.0 mm 0.00 in0.0 mm 0.04 in1.0 mm
05:43 AM 59.0°F15.0°C 44.3°F6.8°C 58% 4.9 mph SSW7.9 kmh SSW 4.9 mph7.9 kmh 29.26 in990.9 mb 0.00 in0.0 mm 0.00 in0.0 mm 0.04 in1.0 mm
05:42 AM 59.0°F15.0°C 44.3°F6.8°C 58% Calm Calm -- 29.26 in990.9 mb 0.00 in0.0 mm 0.00 in0.0 mm 0.04 in1.0 mm
05:41 AM 58.8°F14.9°C 44.1°F6.7°C 58% Calm Calm 0.9 mph1.4 kmh 29.26 in990.9 mb 0.00 in0.0 mm 0.00 in0.0 mm 0.04 in1.0 mm
05:39 AM 58.8°F14.9°C 44.1°F6.7°C 58% 1.3 mph SSW2.1 kmh SSW 2.0 mph3.2 kmh 29.26 in990.9 mb 0.00 in0.0 mm 0.00 in0.0 mm 0.04 in1.0 mm
05:38 AM 58.8°F14.9°C 44.1°F6.7°C 58% 2.0 mph S3.2 kmh S 3.1 mph5.0 kmh 29.26 in990.9 mb 0.00 in0.0 mm 0.00 in0.0 mm 0.04 in1.0 mm
05:37 AM 58.8°F14.9°C 44.1°F6.7°C 58% 2.5 mph SSW4.0 kmh SSW 2.5 mph4.0 kmh 29.26 in990.9 mb 0.00 in0.0 mm 0.00 in0.0 mm 0.04 in1.0 mm
05:36 AM 58.8°F14.9°C 44.1°F6.7°C 58% 0.9 mph SSW1.4 kmh SSW 3.1 mph5.0 kmh 29.26 in990.9 mb 0.00 in0.0 mm 0.00 in0.0 mm 0.04 in1.0 mm
05:35 AM 58.8°F14.9°C 44.1°F6.7°C 58% 1.3 mph SSW2.1 kmh SSW 1.3 mph2.1 kmh 29.26 in990.9 mb 0.00 in0.0 mm 0.00 in0.0 mm 0.04 in1.0 mm
05:34 AM 58.8°F14.9°C 44.1°F6.7°C 58% 2.0 mph SSW3.2 kmh SSW 2.9 mph4.7 kmh 29.26 in990.9 mb 0.00 in0.0 mm 0.00 in0.0 mm 0.04 in1.0 mm
05:33 AM 58.8°F14.9°C 44.1°F6.7°C 58% 2.9 mph S4.7 kmh S 4.3 mph6.9 kmh 29.26 in990.9 mb 0.00 in0.0 mm 0.00 in0.0 mm 0.04 in1.0 mm
05:32 AM 58.8°F14.9°C 44.1°F6.7°C 58% 0.9 mph SSW1.4 kmh SSW 2.0 mph3.2 kmh 29.26 in990.9 mb 0.00 in0.0 mm 0.00 in0.0 mm 0.04 in1.0 mm
05:31 AM 58.8°F14.9°C 44.5°F6.9°C 59% 2.5 mph SSW4.0 kmh SSW 2.5 mph4.0 kmh 29.26 in990.9 mb 0.00 in0.0 mm 0.00 in0.0 mm 0.04 in1.0 mm
05:30 AM 58.8°F14.9°C 44.5°F6.9°C 59% 2.7 mph SSW4.3 kmh SSW 2.7 mph4.3 kmh 29.26 in990.9 mb 0.00 in0.0 mm 0.00 in0.0 mm 0.04 in1.0 mm
05:29 AM 58.8°F14.9°C 44.5°F6.9°C 59% 2.2 mph SSW3.5 kmh SSW 2.2 mph3.5 kmh 29.26 in990.9 mb 0.00 in0.0 mm 0.00 in0.0 mm 0.04 in1.0 mm
05:28 AM 58.8°F14.9°C 44.5°F6.9°C 59% Calm Calm 0.9 mph1.4 kmh 29.26 in990.9 mb 0.00 in0.0 mm 0.00 in0.0 mm 0.04 in1.0 mm
05:27 AM 58.8°F14.9°C 44.5°F6.9°C 59% Calm Calm -- 29.26 in990.9 mb 0.00 in0.0 mm 0.00 in0.0 mm 0.04 in1.0 mm
05:26 AM 58.8°F14.9°C 44.5°F6.9°C 59% 1.3 mph SW2.1 kmh SW 3.1 mph5.0 kmh 29.26 in990.9 mb 0.00 in0.0 mm 0.00 in0.0 mm 0.04 in1.0 mm
05:25 AM 58.8°F14.9°C 44.5°F6.9°C 59% 2.5 mph SSW4.0 kmh SSW 3.4 mph5.5 kmh 29.26 in990.9 mb 0.00 in0.0 mm 0.00 in0.0 mm 0.04 in1.0 mm
05:24 AM 58.8°F14.9°C 44.5°F6.9°C 59% 1.3 mph SSW2.1 kmh SSW 2.0 mph3.2 kmh 29.26 in990.9 mb 0.00 in0.0 mm 0.00 in0.0 mm 0.04 in1.0 mm
05:23 AM 58.8°F14.9°C 44.5°F6.9°C 59% 3.4 mph S5.5 kmh S 3.4 mph5.5 kmh 29.26 in990.9 mb 0.00 in0.0 mm 0.00 in0.0 mm 0.04 in1.0 mm
05:22 AM 58.8°F14.9°C 44.5°F6.9°C 59% Calm Calm -- 29.26 in990.9 mb 0.00 in0.0 mm 0.00 in0.0 mm 0.04 in1.0 mm
05:21 AM 58.6°F14.8°C 44.4°F6.9°C 59% Calm Calm -- 29.23 in989.8 mb 0.00 in0.0 mm 0.00 in0.0 mm 0.04 in1.0 mm
05:19 AM 58.6°F14.8°C 44.4°F6.9°C 59% 2.9 mph S4.7 kmh S 3.4 mph5.5 kmh 29.23 in989.8 mb 0.00 in0.0 mm 0.00 in0.0 mm 0.04 in1.0 mm
05:17 AM 58.6°F14.8°C 44.4°F6.9°C 59% 1.6 mph SSE2.6 kmh SSE 1.6 mph2.6 kmh 29.23 in989.8 mb 0.00 in0.0 mm 0.00 in0.0 mm 0.04 in1.0 mm
05:16 AM 58.6°F14.8°C 44.4°F6.9°C 59% 1.1 mph WSW1.8 kmh WSW 2.7 mph4.3 kmh 29.23 in989.8 mb 0.00 in0.0 mm 0.00 in0.0 mm 0.04 in1.0 mm
05:15 AM 58.6°F14.8°C 44.4°F6.9°C 59% 2.0 mph S3.2 kmh S 2.0 mph3.2 kmh 29.23 in989.8 mb 0.00 in0.0 mm 0.00 in0.0 mm 0.04 in1.0 mm
05:14 AM 58.6°F14.8°C 44.4°F6.9°C 59% 2.5 mph SSW4.0 kmh SSW 2.5 mph4.0 kmh 29.23 in989.8 mb 0.00 in0.0 mm 0.00 in0.0 mm 0.04 in1.0 mm
05:13 AM 58.6°F14.8°C 44.4°F6.9°C 59% 3.1 mph S5.0 kmh S 3.1 mph5.0 kmh 29.23 in989.8 mb 0.00 in0.0 mm 0.00 in0.0 mm 0.04 in1.0 mm
05:12 AM 58.6°F14.8°C 44.4°F6.9°C 59% 2.5 mph SSW4.0 kmh SSW 2.5 mph4.0 kmh 29.23 in989.8 mb 0.00 in0.0 mm 0.00 in0.0 mm 0.04 in1.0 mm
05:10 AM 58.6°F14.8°C 44.4°F6.9°C 59% Calm Calm -- 29.23 in989.8 mb 0.00 in0.0 mm 0.00 in0.0 mm 0.04 in1.0 mm
05:09 AM 58.5°F14.7°C 44.2°F6.8°C 59% Calm Calm 1.1 mph1.8 kmh 29.23 in989.8 mb 0.00 in0.0 mm 0.00 in0.0 mm 0.04 in1.0 mm
05:08 AM 58.5°F14.7°C 44.2°F6.8°C 59% 0.9 mph S1.4 kmh S 0.9 mph1.4 kmh 29.23 in989.8 mb 0.00 in0.0 mm 0.00 in0.0 mm 0.04 in1.0 mm
05:07 AM 58.5°F14.7°C 44.2°F6.8°C 59% 2.0 mph WNW3.2 kmh WNW 2.9 mph4.7 kmh 29.23 in989.8 mb 0.00 in0.0 mm 0.00 in0.0 mm 0.04 in1.0 mm
05:06 AM 58.5°F14.7°C 44.2°F6.8°C 59% Calm Calm -- 29.26 in990.9 mb 0.00 in0.0 mm 0.00 in0.0 mm 0.04 in1.0 mm
05:05 AM 58.5°F14.7°C 44.2°F6.8°C 59% Calm Calm -- 29.26 in990.9 mb 0.00 in0.0 mm 0.00 in0.0 mm 0.04 in1.0 mm
05:03 AM 58.5°F14.7°C 43.8°F6.6°C 58% Calm Calm -- 29.26 in990.9 mb 0.00 in0.0 mm 0.00 in0.0 mm 0.04 in1.0 mm
05:01 AM 58.5°F14.7°C 43.8°F6.6°C 58% Calm Calm -- 29.26 in990.9 mb 0.00 in0.0 mm 0.00 in0.0 mm 0.04 in1.0 mm
05:00 AM 58.5°F14.7°C 43.8°F6.6°C 58% Calm Calm -- 29.26 in990.9 mb 0.00 in0.0 mm 0.00 in0.0 mm 0.04 in1.0 mm
04:59 AM 58.3°F14.6°C 43.6°F6.4°C 58% Calm Calm -- 29.26 in990.9 mb 0.00 in0.0 mm 0.00 in0.0 mm 0.04 in1.0 mm
04:58 AM 58.3°F14.6°C 43.6°F6.4°C 58% Calm Calm 1.3 mph2.1 kmh 29.26 in990.9 mb 0.00 in0.0 mm 0.00 in0.0 mm 0.04 in1.0 mm
04:57 AM 58.3°F14.6°C 43.6°F6.4°C 58% 1.3 mph WNW2.1 kmh WNW 1.3 mph2.1 kmh 29.26 in990.9 mb 0.00 in0.0 mm 0.00 in0.0 mm 0.04 in1.0 mm
04:56 AM 58.3°F14.6°C 43.6°F6.4°C 58% 0.9 mph WNW1.4 kmh WNW 1.3 mph2.1 kmh 29.26 in990.9 mb 0.00 in0.0 mm 0.00 in0.0 mm 0.04 in1.0 mm
04:55 AM 58.3°F14.6°C 43.6°F6.4°C 58% 0.9 mph SSW1.4 kmh SSW 0.9 mph1.4 kmh 29.26 in990.9 mb 0.00 in0.0 mm 0.00 in0.0 mm 0.04 in1.0 mm
04:54 AM 58.3°F14.6°C 43.6°F6.4°C 58% 1.1 mph NE1.8 kmh NE 1.1 mph1.8 kmh 29.26 in990.9 mb 0.00 in0.0 mm 0.00 in0.0 mm 0.04 in1.0 mm
04:52 AM 58.3°F14.6°C 43.6°F6.4°C 58% 1.3 mph W2.1 kmh W 2.7 mph4.3 kmh 29.26 in990.9 mb 0.00 in0.0 mm 0.00 in0.0 mm 0.04 in1.0 mm
04:51 AM 58.3°F14.6°C 43.6°F6.4°C 58% Calm Calm 2.0 mph3.2 kmh 29.26 in990.9 mb 0.00 in0.0 mm 0.00 in0.0 mm 0.04 in1.0 mm
04:50 AM 58.3°F14.6°C 43.6°F6.4°C 58% 0.9 mph WSW1.4 kmh WSW 0.9 mph1.4 kmh 29.26 in990.9 mb 0.00 in0.0 mm 0.00 in0.0 mm 0.04 in1.0 mm
04:49 AM 58.3°F14.6°C 43.6°F6.4°C 58% Calm Calm -- 29.26 in990.9 mb 0.00 in0.0 mm 0.00 in0.0 mm 0.04 in1.0 mm
04:48 AM 58.3°F14.6°C 43.6°F6.4°C 58% Calm Calm 2.0 mph3.2 kmh 29.26 in990.9 mb 0.00 in0.0 mm 0.00 in0.0 mm 0.04 in1.0 mm
04:47 AM 58.3°F14.6°C 43.6°F6.4°C 58% 0.9 mph WNW1.4 kmh WNW 0.9 mph1.4 kmh 29.26 in990.9 mb 0.00 in0.0 mm 0.00 in0.0 mm 0.04 in1.0 mm
04:45 AM 58.3°F14.6°C 43.1°F6.2°C 57% 0.9 mph WSW1.4 kmh WSW 0.9 mph1.4 kmh 29.26 in990.9 mb 0.00 in0.0 mm 0.00 in0.0 mm 0.04 in1.0 mm
04:43 AM 58.3°F14.6°C 43.6°F6.4°C 58% 1.1 mph WNW1.8 kmh WNW 1.1 mph1.8 kmh 29.26 in990.9 mb 0.00 in0.0 mm 0.00 in0.0 mm 0.04 in1.0 mm
04:42 AM 58.3°F14.6°C 43.6°F6.4°C 58% 1.6 mph WNW2.6 kmh WNW 2.9 mph4.7 kmh 29.26 in990.9 mb 0.00 in0.0 mm 0.00 in0.0 mm 0.04 in1.0 mm
04:41 AM 58.3°F14.6°C 43.6°F6.4°C 58% Calm Calm -- 29.26 in990.9 mb 0.00 in0.0 mm 0.00 in0.0 mm 0.04 in1.0 mm
04:40 AM 58.3°F14.6°C 43.1°F6.2°C 57% 2.0 mph SSW3.2 kmh SSW 2.0 mph3.2 kmh 29.26 in990.9 mb 0.00 in0.0 mm 0.00 in0.0 mm 0.04 in1.0 mm
04:38 AM 58.3°F14.6°C 43.1°F6.2°C 57% 0.9 mph WSW1.4 kmh WSW 0.9 mph1.4 kmh 29.26 in990.9 mb 0.00 in0.0 mm 0.00 in0.0 mm 0.04 in1.0 mm
04:37 AM 58.3°F14.6°C 43.1°F6.2°C 57% 0.9 mph WNW1.4 kmh WNW 1.6 mph2.6 kmh 29.26 in990.9 mb 0.00 in0.0 mm 0.00 in0.0 mm 0.04 in1.0 mm
04:36 AM 58.3°F14.6°C 43.1°F6.2°C 57% Calm Calm -- 29.26 in990.9 mb 0.00 in0.0 mm 0.00 in0.0 mm 0.04 in1.0 mm
04:35 AM 58.3°F14.6°C 43.1°F6.2°C 57% 2.5 mph WNW4.0 kmh WNW 2.5 mph4.0 kmh 29.23 in989.8 mb 0.00 in0.0 mm 0.00 in0.0 mm 0.04 in1.0 mm
04:33 AM 58.3°F14.6°C 43.1°F6.2°C 57% 0.9 mph WSW1.4 kmh WSW 1.3 mph2.1 kmh 29.23 in989.8 mb 0.00 in0.0 mm 0.00 in0.0 mm 0.04 in1.0 mm
04:32 AM 58.3°F14.6°C 43.1°F6.2°C 57% 1.3 mph ESE2.1 kmh ESE 2.2 mph3.5 kmh 29.23 in989.8 mb 0.00 in0.0 mm 0.00 in0.0 mm 0.04 in1.0 mm
04:31 AM 58.3°F14.6°C 43.1°F6.2°C 57% Calm Calm 0.9 mph1.4 kmh 29.23 in989.8 mb 0.00 in0.0 mm 0.00 in0.0 mm 0.04 in1.0 mm
04:30 AM 58.3°F14.6°C 43.1°F6.2°C 57% Calm Calm -- 29.23 in989.8 mb 0.00 in0.0 mm 0.00 in0.0 mm 0.04 in1.0 mm
04:28 AM 58.3°F14.6°C 43.1°F6.2°C 57% 1.6 mph 2.6 kmh 1.6 mph2.6 kmh 29.23 in989.8 mb 0.00 in0.0 mm 0.00 in0.0 mm 0.04 in1.0 mm
04:27 AM 58.3°F14.6°C 43.1°F6.2°C 57% 0.9 mph S1.4 kmh S 0.9 mph1.4 kmh 29.23 in989.8 mb 0.00 in0.0 mm 0.00 in0.0 mm 0.04 in1.0 mm
04:26 AM 58.3°F14.6°C 43.1°F6.2°C 57% 2.9 mph NNE4.7 kmh NNE 2.9 mph4.7 kmh 29.23 in989.8 mb 0.00 in0.0 mm 0.00 in0.0 mm 0.04 in1.0 mm
04:24 AM 58.5°F14.7°C 43.3°F6.3°C 57% 1.3 mph SSW2.1 kmh SSW 1.3 mph2.1 kmh 29.23 in989.8 mb 0.00 in0.0 mm 0.00 in0.0 mm 0.04 in1.0 mm
04:22 AM 58.3°F14.6°C 43.1°F6.2°C 57% 2.7 mph NW4.3 kmh NW 2.7 mph4.3 kmh 29.23 in989.8 mb 0.00 in0.0 mm 0.00 in0.0 mm 0.04 in1.0 mm
04:21 AM 58.5°F14.7°C 43.3°F6.3°C 57% 2.5 mph NNW4.0 kmh NNW 2.5 mph4.0 kmh 29.23 in989.8 mb 0.00 in0.0 mm 0.00 in0.0 mm 0.04 in1.0 mm
04:20 AM 58.5°F14.7°C 43.3°F6.3°C 57% 0.9 mph NE1.4 kmh NE 1.1 mph1.8 kmh 29.23 in989.8 mb 0.00 in0.0 mm 0.00 in0.0 mm 0.04 in1.0 mm
04:19 AM 58.5°F14.7°C 43.3°F6.3°C 57% 1.6 mph NNW2.6 kmh NNW 1.6 mph2.6 kmh 29.23 in989.8 mb 0.00 in0.0 mm 0.00 in0.0 mm 0.04 in1.0 mm
04:18 AM 58.5°F14.7°C 43.3°F6.3°C 57% 2.7 mph SW4.3 kmh SW 2.7 mph4.3 kmh 29.23 in989.8 mb 0.00 in0.0 mm 0.00 in0.0 mm 0.04 in1.0 mm
04:17 AM 58.5°F14.7°C 43.3°F6.3°C 57% 3.4 mph WNW5.5 kmh WNW 3.4 mph5.5 kmh 29.23 in989.8 mb 0.00 in0.0 mm 0.00 in0.0 mm 0.04 in1.0 mm
04:16 AM 58.5°F14.7°C 42.8°F6.0°C 56% 3.1 mph W5.0 kmh W 3.1 mph5.0 kmh 29.23 in989.8 mb 0.00 in0.0 mm 0.00 in0.0 mm 0.04 in1.0 mm
04:15 AM 58.5°F14.7°C 42.8°F6.0°C 56% 1.6 mph NNW2.6 kmh NNW 2.9 mph4.7 kmh 29.23 in989.8 mb 0.00 in0.0 mm 0.00 in0.0 mm 0.04 in1.0 mm
04:14 AM 58.5°F14.7°C 42.8°F6.0°C 56% 0.9 mph ESE1.4 kmh ESE 1.6 mph2.6 kmh 29.23 in989.8 mb 0.00 in0.0 mm 0.00 in0.0 mm 0.04 in1.0 mm
04:13 AM 58.5°F14.7°C 42.8°F6.0°C 56% 2.5 mph NNW4.0 kmh NNW 2.5 mph4.0 kmh 29.23 in989.8 mb 0.00 in0.0 mm 0.00 in0.0 mm 0.04 in1.0 mm
04:12 AM 58.5°F14.7°C 42.8°F6.0°C 56% 0.9 mph NNW1.4 kmh NNW 0.9 mph1.4 kmh 29.23 in989.8 mb 0.00 in0.0 mm 0.00 in0.0 mm 0.04 in1.0 mm
04:11 AM 58.5°F14.7°C 42.8°F6.0°C 56% 1.1 mph W1.8 kmh W 1.6 mph2.6 kmh 29.23 in989.8 mb 0.00 in0.0 mm 0.00 in0.0 mm 0.04 in1.0 mm
04:10 AM 58.5°F14.7°C 42.8°F6.0°C 56% 0.9 mph SW1.4 kmh SW 0.9 mph1.4 kmh 29.23 in989.8 mb 0.00 in0.0 mm 0.00 in0.0 mm 0.04 in1.0 mm
04:08 AM 58.5°F14.7°C 42.8°F6.0°C 56% 1.6 mph WNW2.6 kmh WNW 1.6 mph2.6 kmh 29.23 in989.8 mb 0.00 in0.0 mm 0.00 in0.0 mm 0.04 in1.0 mm
04:07 AM 58.5°F14.7°C 42.8°F6.0°C 56% 1.1 mph ENE1.8 kmh ENE 3.1 mph5.0 kmh 29.23 in989.8 mb 0.00 in0.0 mm 0.00 in0.0 mm 0.04 in1.0 mm
04:05 AM 58.5°F14.7°C 42.8°F6.0°C 56% 1.3 mph WNW2.1 kmh WNW 1.3 mph2.1 kmh 29.23 in989.8 mb 0.00 in0.0 mm 0.00 in0.0 mm 0.04 in1.0 mm
04:04 AM 58.5°F14.7°C 42.8°F6.0°C 56% 0.9 mph W1.4 kmh W 1.1 mph1.8 kmh 29.23 in989.8 mb 0.00 in0.0 mm 0.00 in0.0 mm 0.04 in1.0 mm
04:03 AM 58.5°F14.7°C 42.8°F6.0°C 56% 0.9 mph NE1.4 kmh NE 2.2 mph3.5 kmh 29.23 in989.8 mb 0.00 in0.0 mm 0.00 in0.0 mm 0.04 in1.0 mm
04:01 AM 58.5°F14.7°C 42.8°F6.0°C 56% 0.9 mph NNW1.4 kmh NNW 0.9 mph1.4 kmh 29.23 in989.8 mb 0.00 in0.0 mm 0.00 in0.0 mm 0.04 in1.0 mm
04:00 AM 58.5°F14.7°C 42.8°F6.0°C 56% 1.3 mph SSW2.1 kmh SSW 1.3 mph2.1 kmh 29.23 in989.8 mb 0.00 in0.0 mm 0.00 in0.0 mm 0.04 in1.0 mm
03:59 AM 58.5°F14.7°C 42.8°F6.0°C 56% 4.0 mph WNW6.4 kmh WNW 4.0 mph6.4 kmh 29.23 in989.8 mb 0.00 in0.0 mm 0.00 in0.0 mm 0.04 in1.0 mm
03:58 AM 58.5°F14.7°C 42.8°F6.0°C 56% Calm Calm 0.9 mph1.4 kmh 29.23 in989.8 mb 0.00 in0.0 mm 0.00 in0.0 mm 0.04 in1.0 mm
03:57 AM 58.5°F14.7°C 42.8°F6.0°C 56% 0.9 mph NNW1.4 kmh NNW 0.9 mph1.4 kmh 29.23 in989.8 mb 0.00 in0.0 mm 0.00 in0.0 mm 0.04 in1.0 mm
03:56 AM 58.6°F14.8°C 43.0°F6.1°C 56% Calm Calm -- 29.23 in989.8 mb 0.00 in0.0 mm 0.00 in0.0 mm 0.04 in1.0 mm
03:55 AM 58.6°F14.8°C 43.0°F6.1°C 56% Calm Calm 2.2 mph3.5 kmh 29.23 in989.8 mb 0.00 in0.0 mm 0.00 in0.0 mm 0.04 in1.0 mm
03:53 AM 58.6°F14.8°C 43.0°F6.1°C 56% 2.2 mph SSW3.5 kmh SSW 2.2 mph3.5 kmh 29.23 in989.8 mb 0.00 in0.0 mm 0.00 in0.0 mm 0.04 in1.0 mm
03:52 AM 58.5°F14.7°C 42.8°F6.0°C 56% 2.5 mph WSW4.0 kmh WSW 2.5 mph4.0 kmh 29.23 in989.8 mb 0.00 in0.0 mm 0.00 in0.0 mm 0.04 in1.0 mm
03:50 AM 58.5°F14.7°C 42.8°F6.0°C 56% 2.9 mph S4.7 kmh S 2.9 mph4.7 kmh 29.23 in989.8 mb 0.00 in0.0 mm 0.00 in0.0 mm 0.04 in1.0 mm
03:49 AM 58.6°F14.8°C 43.0°F6.1°C 56% 3.4 mph SSE5.5 kmh SSE 3.4 mph5.5 kmh 29.23 in989.8 mb 0.00 in0.0 mm 0.00 in0.0 mm 0.04 in1.0 mm
03:48 AM 58.6°F14.8°C 43.0°F6.1°C 56% Calm Calm -- 29.23 in989.8 mb 0.00 in0.0 mm 0.00 in0.0 mm 0.04 in1.0 mm
03:47 AM 58.6°F14.8°C 43.0°F6.1°C 56% Calm Calm 1.1 mph1.8 kmh 29.23 in989.8 mb 0.00 in0.0 mm 0.00 in0.0 mm 0.04 in1.0 mm
03:46 AM 58.6°F14.8°C 43.0°F6.1°C 56% Calm Calm -- 29.23 in989.8 mb 0.00 in0.0 mm 0.00 in0.0 mm 0.04 in1.0 mm
03:45 AM 58.6°F14.8°C 43.0°F6.1°C 56% Calm Calm -- 29.23 in989.8 mb 0.00 in0.0 mm 0.00 in0.0 mm 0.04 in1.0 mm
03:44 AM 58.6°F14.8°C 43.0°F6.1°C 56% 2.2 mph WSW3.5 kmh WSW 2.5 mph4.0 kmh 29.23 in989.8 mb 0.00 in0.0 mm 0.00 in0.0 mm 0.04 in1.0 mm
03:43 AM 58.6°F14.8°C 43.0°F6.1°C 56% Calm Calm -- 29.23 in989.8 mb 0.00 in0.0 mm 0.00 in0.0 mm 0.04 in1.0 mm
03:42 AM 58.6°F14.8°C 43.0°F6.1°C 56% Calm Calm -- 29.23 in989.8 mb 0.00 in0.0 mm 0.00 in0.0 mm 0.04 in1.0 mm
03:41 AM 58.6°F14.8°C 43.0°F6.1°C 56% Calm Calm -- 29.23 in989.8 mb 0.00 in0.0 mm 0.00 in0.0 mm 0.04 in1.0 mm
03:40 AM 58.6°F14.8°C 43.0°F6.1°C 56% Calm Calm -- 29.23 in989.8 mb 0.00 in0.0 mm 0.00 in0.0 mm 0.04 in1.0 mm
03:39 AM 58.6°F14.8°C 43.0°F6.1°C 56% Calm Calm -- 29.23 in989.8 mb 0.00 in0.0 mm 0.00 in0.0 mm 0.04 in1.0 mm
03:38 AM 58.6°F14.8°C 43.0°F6.1°C 56% 2.7 mph SSE4.3 kmh SSE 2.7 mph4.3 kmh 29.23 in989.8 mb 0.00 in0.0 mm 0.00 in0.0 mm 0.04 in1.0 mm
03:37 AM 58.6°F14.8°C 43.0°F6.1°C 56% Calm Calm -- 29.23 in989.8 mb 0.00 in0.0 mm 0.00 in0.0 mm 0.04 in1.0 mm
03:36 AM 58.6°F14.8°C 43.0°F6.1°C 56% 2.0 mph WNW3.2 kmh WNW 2.0 mph3.2 kmh 29.23 in989.8 mb 0.00 in0.0 mm 0.00 in0.0 mm 0.04 in1.0 mm
03:35 AM 58.6°F14.8°C 43.0°F6.1°C 56% Calm Calm -- 29.23 in989.8 mb 0.00 in0.0 mm 0.00 in0.0 mm 0.04 in1.0 mm
03:34 AM 58.6°F14.8°C 43.0°F6.1°C 56% Calm Calm -- 29.23 in989.8 mb 0.00 in0.0 mm 0.00 in0.0 mm 0.04 in1.0 mm
03:32 AM 58.5°F14.7°C 42.8°F6.0°C 56% Calm Calm -- 29.23 in989.8 mb 0.00 in0.0 mm 0.00 in0.0 mm 0.04 in1.0 mm
03:31 AM 58.5°F14.7°C 42.8°F6.0°C 56% 1.1 mph WNW1.8 kmh WNW 1.1 mph1.8 kmh 29.23 in989.8 mb 0.00 in0.0 mm 0.00 in0.0 mm 0.04 in1.0 mm
03:30 AM 58.6°F14.8°C 43.0°F6.1°C 56% Calm Calm -- 29.23 in989.8 mb 0.00 in0.0 mm 0.00 in0.0 mm 0.04 in1.0 mm
03:29 AM 58.6°F14.8°C 43.0°F6.1°C 56% Calm Calm -- 29.23 in989.8 mb 0.00 in0.0 mm 0.00 in0.0 mm 0.04 in1.0 mm
03:28 AM 58.6°F14.8°C 43.0°F6.1°C 56% Calm Calm -- 29.23 in989.8 mb 0.00 in0.0 mm 0.00 in0.0 mm 0.04 in1.0 mm
03:27 AM 58.6°F14.8°C 43.0°F6.1°C 56% Calm Calm -- 29.23 in989.8 mb 0.00 in0.0 mm 0.00 in0.0 mm 0.04 in1.0 mm
03:26 AM 58.6°F14.8°C 43.0°F6.1°C 56% Calm Calm -- 29.23 in989.8 mb 0.00 in0.0 mm 0.00 in0.0 mm 0.04 in1.0 mm
03:25 AM 58.6°F14.8°C 43.0°F6.1°C 56% 1.1 mph NNW1.8 kmh NNW 1.6 mph2.6 kmh 29.23 in989.8 mb 0.00 in0.0 mm 0.00 in0.0 mm 0.04 in1.0 mm
03:24 AM 58.6°F14.8°C 43.0°F6.1°C 56% Calm Calm 1.3 mph2.1 kmh 29.23 in989.8 mb 0.00 in0.0 mm 0.00 in0.0 mm 0.04 in1.0 mm
03:23 AM 58.6°F14.8°C 43.0°F6.1°C 56% 1.1 mph WNW1.8 kmh WNW 1.1 mph1.8 kmh 29.23 in989.8 mb 0.00 in0.0 mm 0.00 in0.0 mm 0.04 in1.0 mm
03:22 AM 58.6°F14.8°C 43.0°F6.1°C 56% 1.1 mph WNW1.8 kmh WNW 1.3 mph2.1 kmh 29.23 in989.8 mb 0.00 in0.0 mm 0.00 in0.0 mm 0.04 in1.0 mm
03:21 AM 58.6°F14.8°C 43.0°F6.1°C 56% 1.3 mph NW2.1 kmh NW 2.0 mph3.2 kmh 29.23 in989.8 mb 0.00 in0.0 mm 0.00 in0.0 mm 0.04 in1.0 mm
03:20 AM 58.6°F14.8°C 43.0°F6.1°C 56% 2.5 mph WNW4.0 kmh WNW 2.5 mph4.0 kmh 29.23 in989.8 mb 0.00 in0.0 mm 0.00 in0.0 mm 0.04 in1.0 mm
03:19 AM 58.6°F14.8°C 43.0°F6.1°C 56% Calm Calm -- 29.23 in989.8 mb 0.00 in0.0 mm 0.00 in0.0 mm 0.04 in1.0 mm
03:18 AM 58.6°F14.8°C 43.0°F6.1°C 56% Calm Calm 2.5 mph4.0 kmh 29.23 in989.8 mb 0.00 in0.0 mm 0.00 in0.0 mm 0.04 in1.0 mm
03:17 AM 58.6°F14.8°C 43.0°F6.1°C 56% Calm Calm -- 29.23 in989.8 mb 0.00 in0.0 mm 0.00 in0.0 mm 0.04 in1.0 mm
03:16 AM 58.6°F14.8°C 43.0°F6.1°C 56% Calm Calm 1.3 mph2.1 kmh 29.23 in989.8 mb 0.00 in0.0 mm 0.00 in0.0 mm 0.04 in1.0 mm
03:15 AM 58.8°F14.9°C 43.2°F6.2°C 56% 0.9 mph WNW1.4 kmh WNW 1.6 mph2.6 kmh 29.23 in989.8 mb 0.00 in0.0 mm 0.00 in0.0 mm 0.04 in1.0 mm
03:14 AM 58.8°F14.9°C 43.2°F6.2°C 56% 1.1 mph NNE1.8 kmh NNE 1.1 mph1.8 kmh 29.23 in989.8 mb 0.00 in0.0 mm 0.00 in0.0 mm 0.04 in1.0 mm
03:13 AM 58.8°F14.9°C 43.2°F6.2°C 56% 1.6 mph NNE2.6 kmh NNE 1.6 mph2.6 kmh 29.23 in989.8 mb 0.00 in0.0 mm 0.00 in0.0 mm 0.04 in1.0 mm
03:12 AM 58.8°F14.9°C 43.2°F6.2°C 56% 0.9 mph SSW1.4 kmh SSW 0.9 mph1.4 kmh 29.23 in989.8 mb 0.00 in0.0 mm 0.00 in0.0 mm 0.04 in1.0 mm
03:11 AM 58.8°F14.9°C 42.7°F5.9°C 55% Calm Calm -- 29.23 in989.8 mb 0.00 in0.0 mm 0.00 in0.0 mm 0.04 in1.0 mm
03:10 AM 58.8°F14.9°C 43.2°F6.2°C 56% 1.1 mph NNW1.8 kmh NNW 1.3 mph2.1 kmh 29.23 in989.8 mb 0.00 in0.0 mm 0.00 in0.0 mm 0.04 in1.0 mm
03:09 AM 58.8°F14.9°C 43.2°F6.2°C 56% 0.9 mph SSW1.4 kmh SSW 0.9 mph1.4 kmh 29.23 in989.8 mb 0.00 in0.0 mm 0.00 in0.0 mm 0.04 in1.0 mm
03:08 AM 58.8°F14.9°C 43.2°F6.2°C 56% 1.1 mph WSW1.8 kmh WSW 1.1 mph1.8 kmh 29.23 in989.8 mb 0.00 in0.0 mm 0.00 in0.0 mm 0.04 in1.0 mm
03:07 AM 58.8°F14.9°C 43.2°F6.2°C 56% 2.5 mph WSW4.0 kmh WSW 2.5 mph4.0 kmh 29.23 in989.8 mb 0.00 in0.0 mm 0.00 in0.0 mm 0.04 in1.0 mm
03:06 AM 58.8°F14.9°C 43.2°F6.2°C 56% 1.3 mph WSW2.1 kmh WSW 2.0 mph3.2 kmh 29.23 in989.8 mb 0.00 in0.0 mm 0.00 in0.0 mm 0.04 in1.0 mm
03:05 AM 58.8°F14.9°C 43.2°F6.2°C 56% 1.1 mph NNW1.8 kmh NNW 1.6 mph2.6 kmh 29.23 in989.8 mb 0.00 in0.0 mm 0.00 in0.0 mm 0.04 in1.0 mm
03:04 AM 58.8°F14.9°C 43.2°F6.2°C 56% 0.9 mph WNW1.4 kmh WNW 0.9 mph1.4 kmh 29.23 in989.8 mb 0.00 in0.0 mm 0.00 in0.0 mm 0.04 in1.0 mm
03:03 AM 58.8°F14.9°C 43.2°F6.2°C 56% Calm Calm -- 29.23 in989.8 mb 0.04 in1.0 mm 0.00 in0.0 mm 0.04 in1.0 mm
03:02 AM 58.8°F14.9°C 43.2°F6.2°C 56% Calm Calm -- 29.23 in989.8 mb 0.04 in1.0 mm 0.00 in0.0 mm 0.04 in1.0 mm
03:01 AM 58.8°F14.9°C 43.2°F6.2°C 56% Calm Calm 0.9 mph1.4 kmh 29.23 in989.8 mb 0.04 in1.0 mm 0.00 in0.0 mm 0.04 in1.0 mm
03:00 AM 59.0°F15.0°C 42.9°F6.1°C 55% 2.7 mph NNW4.3 kmh NNW 2.7 mph4.3 kmh 29.23 in989.8 mb 0.04 in1.0 mm 0.00 in0.0 mm 0.04 in1.0 mm
02:59 AM 59.0°F15.0°C 42.9°F6.1°C 55% Calm Calm 2.9 mph4.7 kmh 29.23 in989.8 mb 0.04 in1.0 mm 0.00 in0.0 mm 0.04 in1.0 mm
02:58 AM 59.0°F15.0°C 42.9°F6.1°C 55% Calm Calm -- 29.23 in989.8 mb 0.04 in1.0 mm 0.00 in0.0 mm 0.04 in1.0 mm
02:57 AM 59.0°F15.0°C 42.9°F6.1°C 55% 1.6 mph WNW2.6 kmh WNW 2.5 mph4.0 kmh 29.23 in989.8 mb 0.04 in1.0 mm 0.00 in0.0 mm 0.04 in1.0 mm
02:56 AM 59.0°F15.0°C 42.9°F6.1°C 55% 1.6 mph WSW2.6 kmh WSW 1.6 mph2.6 kmh 29.23 in989.8 mb 0.04 in1.0 mm 0.00 in0.0 mm 0.04 in1.0 mm
02:55 AM 59.0°F15.0°C 42.9°F6.1°C 55% 2.0 mph WNW3.2 kmh WNW 2.0 mph3.2 kmh 29.23 in989.8 mb 0.04 in1.0 mm 0.00 in0.0 mm 0.04 in1.0 mm
02:53 AM 59.0°F15.0°C 42.9°F6.1°C 55% 0.9 mph W1.4 kmh W 1.6 mph2.6 kmh 29.23 in989.8 mb 0.04 in1.0 mm 0.00 in0.0 mm 0.04 in1.0 mm
02:52 AM 59.0°F15.0°C 42.9°F6.1°C 55% 1.1 mph WSW1.8 kmh WSW 1.1 mph1.8 kmh 29.23 in989.8 mb 0.04 in1.0 mm 0.00 in0.0 mm 0.04 in1.0 mm
02:51 AM 59.0°F15.0°C 43.3°F6.3°C 56% 2.2 mph ENE3.5 kmh ENE 2.5 mph4.0 kmh 29.23 in989.8 mb 0.04 in1.0 mm 0.00 in0.0 mm 0.04 in1.0 mm
02:50 AM 59.2°F15.1°C 43.5°F6.4°C 56% 2.5 mph WSW4.0 kmh WSW 2.5 mph4.0 kmh 29.23 in989.8 mb 0.04 in1.0 mm 0.00 in0.0 mm 0.04 in1.0 mm
02:49 AM 59.2°F15.1°C 43.0°F6.1°C 55% 2.0 mph NNW3.2 kmh NNW 2.0 mph3.2 kmh 29.23 in989.8 mb 0.04 in1.0 mm 0.00 in0.0 mm 0.04 in1.0 mm
02:48 AM 59.2°F15.1°C 43.5°F6.4°C 56% 2.5 mph WSW4.0 kmh WSW 2.5 mph4.0 kmh 29.23 in989.8 mb 0.04 in1.0 mm 0.00 in0.0 mm 0.04 in1.0 mm
02:47 AM 59.2°F15.1°C 43.5°F6.4°C 56% 0.9 mph WNW1.4 kmh WNW 0.9 mph1.4 kmh 29.23 in989.8 mb 0.04 in1.0 mm 0.00 in0.0 mm 0.04 in1.0 mm
02:46 AM 59.2°F15.1°C 43.5°F6.4°C 56% 1.6 mph NNW2.6 kmh NNW 1.6 mph2.6 kmh 29.23 in989.8 mb 0.04 in1.0 mm 0.00 in0.0 mm 0.04 in1.0 mm
02:45 AM 59.2°F15.1°C 43.5°F6.4°C 56% 3.4 mph WSW5.5 kmh WSW 3.6 mph5.8 kmh 29.23 in989.8 mb 0.04 in1.0 mm 0.00 in0.0 mm 0.04 in1.0 mm
02:44 AM 59.2°F15.1°C 43.5°F6.4°C 56% Calm Calm -- 29.23 in989.8 mb 0.04 in1.0 mm 0.00 in0.0 mm 0.04 in1.0 mm
02:43 AM 59.2°F15.1°C 43.5°F6.4°C 56% 1.1 mph SSW1.8 kmh SSW 1.1 mph1.8 kmh 29.23 in989.8 mb 0.04 in1.0 mm 0.00 in0.0 mm 0.04 in1.0 mm
02:42 AM 59.2°F15.1°C 43.0°F6.1°C 55% Calm Calm 0.9 mph1.4 kmh 29.23 in989.8 mb 0.04 in1.0 mm 0.00 in0.0 mm 0.04 in1.0 mm
02:41 AM 59.2°F15.1°C 43.0°F6.1°C 55% Calm Calm 1.3 mph2.1 kmh 29.23 in989.8 mb 0.04 in1.0 mm 0.00 in0.0 mm 0.04 in1.0 mm
02:40 AM 59.2°F15.1°C 43.0°F6.1°C 55% Calm Calm 0.9 mph1.4 kmh 29.23 in989.8 mb 0.04 in1.0 mm 0.00 in0.0 mm 0.04 in1.0 mm
02:39 AM 59.0°F15.0°C 42.9°F6.1°C 55% Calm Calm -- 29.23 in989.8 mb 0.04 in1.0 mm 0.00 in0.0 mm 0.04 in1.0 mm
02:38 AM 59.2°F15.1°C 43.0°F6.1°C 55% Calm Calm 3.4 mph5.5 kmh 29.23 in989.8 mb 0.04 in1.0 mm 0.00 in0.0 mm 0.04 in1.0 mm
02:37 AM 59.2°F15.1°C 43.0°F6.1°C 55% 3.4 mph WNW5.5 kmh WNW 3.4 mph5.5 kmh 29.23 in989.8 mb 0.04 in1.0 mm 0.00 in0.0 mm 0.04 in1.0 mm
02:36 AM 59.2°F15.1°C 43.0°F6.1°C 55% 0.9 mph E1.4 kmh E 0.9 mph1.4 kmh 29.23 in989.8 mb 0.04 in1.0 mm 0.00 in0.0 mm 0.04 in1.0 mm
02:34 AM 59.2°F15.1°C 43.0°F6.1°C 55% Calm Calm -- 29.23 in989.8 mb 0.04 in1.0 mm 0.00 in0.0 mm 0.04 in1.0 mm
02:33 AM 59.2°F15.1°C 43.0°F6.1°C 55% 1.6 mph WNW2.6 kmh WNW 1.6 mph2.6 kmh 29.23 in989.8 mb 0.04 in1.0 mm 0.00 in0.0 mm 0.04 in1.0 mm
02:32 AM 59.2°F15.1°C 43.0°F6.1°C 55% 2.0 mph WSW3.2 kmh WSW 2.0 mph3.2 kmh 29.23 in989.8 mb 0.04 in1.0 mm 0.00 in0.0 mm 0.04 in1.0 mm
02:30 AM 59.2°F15.1°C 43.0°F6.1°C 55% 0.9 mph WNW1.4 kmh WNW 0.9 mph1.4 kmh 29.23 in989.8 mb 0.04 in1.0 mm 0.00 in0.0 mm 0.04 in1.0 mm
02:29 AM 59.2°F15.1°C 43.0°F6.1°C 55% Calm Calm -- 29.23 in989.8 mb 0.04 in1.0 mm 0.00 in0.0 mm 0.04 in1.0 mm
02:28 AM 59.2°F15.1°C 43.0°F6.1°C 55% Calm Calm 2.0 mph3.2 kmh 29.23 in989.8 mb 0.04 in1.0 mm 0.00 in0.0 mm 0.04 in1.0 mm
02:27 AM 59.2°F15.1°C 43.0°F6.1°C 55% 0.9 mph WNW1.4 kmh WNW 1.6 mph2.6 kmh 29.23 in989.8 mb 0.04 in1.0 mm 0.00 in0.0 mm 0.04 in1.0 mm
02:26 AM 59.2°F15.1°C 43.0°F6.1°C 55% Calm Calm 1.1 mph1.8 kmh 29.23 in989.8 mb 0.04 in1.0 mm 0.00 in0.0 mm 0.04 in1.0 mm
02:25 AM 59.2°F15.1°C 43.0°F6.1°C 55% Calm Calm -- 29.23 in989.8 mb 0.04 in1.0 mm 0.00 in0.0 mm 0.04 in1.0 mm
02:24 AM 59.2°F15.1°C 43.0°F6.1°C 55% Calm Calm 2.0 mph3.2 kmh 29.23 in989.8 mb 0.04 in1.0 mm 0.00 in0.0 mm 0.04 in1.0 mm
02:23 AM 59.2°F15.1°C 43.0°F6.1°C 55% 0.9 mph NNW1.4 kmh NNW 2.2 mph3.5 kmh 29.23 in989.8 mb 0.04 in1.0 mm 0.00 in0.0 mm 0.04 in1.0 mm
02:22 AM 59.4°F15.2°C 43.2°F6.2°C 55% 2.7 mph WNW4.3 kmh WNW 2.7 mph4.3 kmh 29.23 in989.8 mb 0.04 in1.0 mm 0.00 in0.0 mm 0.04 in1.0 mm
02:21 AM 59.4°F15.2°C 43.2°F6.2°C 55% 2.2 mph WNW3.5 kmh WNW 2.2 mph3.5 kmh 29.23 in989.8 mb 0.04 in1.0 mm 0.00 in0.0 mm 0.04 in1.0 mm
02:20 AM 59.4°F15.2°C 43.2°F6.2°C 55% 2.5 mph SSE4.0 kmh SSE 2.5 mph4.0 kmh 29.23 in989.8 mb 0.04 in1.0 mm 0.00 in0.0 mm 0.04 in1.0 mm
02:19 AM 59.4°F15.2°C 43.2°F6.2°C 55% 1.3 mph W2.1 kmh W 1.3 mph2.1 kmh 29.23 in989.8 mb 0.04 in1.0 mm 0.00 in0.0 mm 0.04 in1.0 mm
02:18 AM 59.4°F15.2°C 42.7°F5.9°C 54% 2.5 mph SSW4.0 kmh SSW 3.4 mph5.5 kmh 29.23 in989.8 mb 0.04 in1.0 mm 0.00 in0.0 mm 0.04 in1.0 mm
02:16 AM 59.4°F15.2°C 42.7°F5.9°C 54% 2.7 mph ESE4.3 kmh ESE 3.1 mph5.0 kmh 29.23 in989.8 mb 0.04 in1.0 mm 0.00 in0.0 mm 0.04 in1.0 mm
02:15 AM 59.4°F15.2°C 42.7°F5.9°C 54% 2.5 mph NNE4.0 kmh NNE 2.5 mph4.0 kmh 29.23 in989.8 mb 0.04 in1.0 mm 0.00 in0.0 mm 0.04 in1.0 mm
02:14 AM 59.4°F15.2°C 42.7°F5.9°C 54% 1.1 mph SSW1.8 kmh SSW 1.1 mph1.8 kmh 29.23 in989.8 mb 0.04 in1.0 mm 0.00 in0.0 mm 0.04 in1.0 mm
02:13 AM 59.4°F15.2°C 42.7°F5.9°C 54% 0.9 mph ESE1.4 kmh ESE 2.0 mph3.2 kmh 29.23 in989.8 mb 0.04 in1.0 mm 0.00 in0.0 mm 0.04 in1.0 mm
02:12 AM 59.4°F15.2°C 42.7°F5.9°C 54% 2.7 mph SSW4.3 kmh SSW 2.7 mph4.3 kmh 29.23 in989.8 mb 0.04 in1.0 mm 0.00 in0.0 mm 0.04 in1.0 mm
02:10 AM 59.4°F15.2°C 42.7°F5.9°C 54% 1.6 mph SE2.6 kmh SE 3.1 mph5.0 kmh 29.23 in989.8 mb 0.04 in1.0 mm 0.00 in0.0 mm 0.04 in1.0 mm
02:09 AM 59.4°F15.2°C 42.7°F5.9°C 54% 1.6 mph SSW2.6 kmh SSW 1.6 mph2.6 kmh 29.23 in989.8 mb 0.04 in1.0 mm 0.00 in0.0 mm 0.04 in1.0 mm
02:08 AM 59.4°F15.2°C 42.2°F5.7°C 53% 2.9 mph NW4.7 kmh NW 2.9 mph4.7 kmh 29.23 in989.8 mb 0.04 in1.0 mm 0.00 in0.0 mm 0.04 in1.0 mm
02:07 AM 59.4°F15.2°C 42.2°F5.7°C 53% 1.3 mph NNW2.1 kmh NNW 1.3 mph2.1 kmh 29.23 in989.8 mb 0.04 in1.0 mm 0.00 in0.0 mm 0.04 in1.0 mm
02:06 AM 59.4°F15.2°C 42.2°F5.7°C 53% 3.8 mph SSW6.1 kmh SSW 3.8 mph6.1 kmh 29.23 in989.8 mb 0.04 in1.0 mm 0.00 in0.0 mm 0.04 in1.0 mm
02:05 AM 59.4°F15.2°C 42.2°F5.7°C 53% Calm Calm 0.9 mph1.4 kmh 29.23 in989.8 mb 0.04 in1.0 mm 0.00 in0.0 mm 0.04 in1.0 mm
02:04 AM 59.4°F15.2°C 42.2°F5.7°C 53% 2.0 mph SSW3.2 kmh SSW 2.7 mph4.3 kmh 29.23 in989.8 mb 0.04 in1.0 mm 2.40 in61.0 mm 0.04 in1.0 mm
02:03 AM 59.4°F15.2°C 42.2°F5.7°C 53% 1.6 mph SSE2.6 kmh SSE 3.4 mph5.5 kmh 29.23 in989.8 mb 0.00 in0.0 mm 0.00 in0.0 mm 0.00 in0.0 mm
02:02 AM 59.4°F15.2°C 42.2°F5.7°C 53% 1.1 mph S1.8 kmh S 3.6 mph5.8 kmh 29.23 in989.8 mb 0.00 in0.0 mm 0.00 in0.0 mm 0.00 in0.0 mm
02:01 AM 59.4°F15.2°C 42.2°F5.7°C 53% 1.6 mph WSW2.6 kmh WSW 6.5 mph10.5 kmh 29.23 in989.8 mb 0.00 in0.0 mm 0.00 in0.0 mm 0.00 in0.0 mm
02:00 AM 59.4°F15.2°C 42.2°F5.7°C 53% 1.6 mph SSE2.6 kmh SSE 1.6 mph2.6 kmh 29.23 in989.8 mb 0.00 in0.0 mm 0.00 in0.0 mm 0.00 in0.0 mm
01:59 AM 59.4°F15.2°C 42.2°F5.7°C 53% 1.6 mph SSE2.6 kmh SSE 2.9 mph4.7 kmh 29.23 in989.8 mb 0.00 in0.0 mm 0.00 in0.0 mm 0.00 in0.0 mm
01:58 AM 59.4°F15.2°C 41.8°F5.4°C 52% 4.0 mph W6.4 kmh W 4.0 mph6.4 kmh 29.23 in989.8 mb 0.00 in0.0 mm 0.00 in0.0 mm 0.00 in0.0 mm
01:57 AM 59.4°F15.2°C 41.8°F5.4°C 52% 2.9 mph SSW4.7 kmh SSW 2.9 mph4.7 kmh 29.23 in989.8 mb 0.00 in0.0 mm 0.00 in0.0 mm 0.00 in0.0 mm
01:56 AM 59.5°F15.3°C 42.4°F5.8°C 53% 0.9 mph NNW1.4 kmh NNW 1.3 mph2.1 kmh 29.23 in989.8 mb 0.00 in0.0 mm 0.00 in0.0 mm 0.00 in0.0 mm
01:55 AM 59.5°F15.3°C 42.4°F5.8°C 53% Calm Calm 1.6 mph2.6 kmh 29.23 in989.8 mb 0.00 in0.0 mm 0.00 in0.0 mm 0.00 in0.0 mm
01:54 AM 59.4°F15.2°C 41.8°F5.4°C 52% Calm Calm -- 29.23 in989.8 mb 0.00 in0.0 mm 0.00 in0.0 mm 0.00 in0.0 mm
01:53 AM 59.4°F15.2°C 41.8°F5.4°C 52% 0.9 mph NNW1.4 kmh NNW 1.3 mph2.1 kmh 29.23 in989.8 mb 0.00 in0.0 mm 0.00 in0.0 mm 0.00 in0.0 mm
01:51 AM 59.4°F15.2°C 41.8°F5.4°C 52% 1.3 mph NNW2.1 kmh NNW 1.3 mph2.1 kmh 29.23 in989.8 mb 0.00 in0.0 mm 0.00 in0.0 mm 0.00 in0.0 mm
01:49 AM 59.5°F15.3°C 41.9°F5.5°C 52% 1.1 mph WNW1.8 kmh WNW 1.1 mph1.8 kmh 29.23 in989.8 mb 0.00 in0.0 mm 0.00 in0.0 mm 0.00 in0.0 mm
01:48 AM 59.5°F15.3°C 41.9°F5.5°C 52% 1.1 mph WNW1.8 kmh WNW 1.6 mph2.6 kmh 29.23 in989.8 mb 0.00 in0.0 mm 0.00 in0.0 mm 0.00 in0.0 mm
01:47 AM 59.5°F15.3°C 41.9°F5.5°C 52% 2.0 mph 3.2 kmh 2.0 mph3.2 kmh 29.23 in989.8 mb 0.00 in0.0 mm 0.00 in0.0 mm 0.00 in0.0 mm
01:46 AM 59.5°F15.3°C 41.9°F5.5°C 52% 0.9 mph S1.4 kmh S 1.3 mph2.1 kmh 29.23 in989.8 mb 0.00 in0.0 mm 0.00 in0.0 mm 0.00 in0.0 mm
01:45 AM 59.4°F15.2°C 41.8°F5.4°C 52% Calm Calm -- 29.23 in989.8 mb 0.00 in0.0 mm 0.00 in0.0 mm 0.00 in0.0 mm
01:44 AM 59.5°F15.3°C 41.9°F5.5°C 52% 2.9 mph WSW4.7 kmh WSW 4.3 mph6.9 kmh 29.23 in989.8 mb 0.00 in0.0 mm 0.00 in0.0 mm 0.00 in0.0 mm
01:43 AM 59.5°F15.3°C 41.4°F5.2°C 51% 2.0 mph WSW3.2 kmh WSW 4.0 mph6.4 kmh 29.23 in989.8 mb 0.00 in0.0 mm 0.00 in0.0 mm 0.00 in0.0 mm
01:42 AM 59.5°F15.3°C 41.4°F5.2°C 51% 1.6 mph WNW2.6 kmh WNW 2.9 mph4.7 kmh 29.23 in989.8 mb 0.00 in0.0 mm 0.00 in0.0 mm 0.00 in0.0 mm
01:41 AM 59.5°F15.3°C 41.4°F5.2°C 51% 2.0 mph WSW3.2 kmh WSW 2.7 mph4.3 kmh 29.23 in989.8 mb 0.00 in0.0 mm 0.00 in0.0 mm 0.00 in0.0 mm
01:39 AM 59.7°F15.4°C 41.6°F5.3°C 51% 4.0 mph W6.4 kmh W 4.0 mph6.4 kmh 29.23 in989.8 mb 0.00 in0.0 mm 0.00 in0.0 mm 0.00 in0.0 mm
01:38 AM 59.7°F15.4°C 41.6°F5.3°C 51% 2.2 mph WNW3.5 kmh WNW 2.2 mph3.5 kmh 29.23 in989.8 mb 0.00 in0.0 mm 0.00 in0.0 mm 0.00 in0.0 mm
01:37 AM 59.9°F15.5°C 41.8°F5.4°C 51% 1.3 mph NNW2.1 kmh NNW 2.5 mph4.0 kmh 29.23 in989.8 mb 0.00 in0.0 mm 0.00 in0.0 mm 0.00 in0.0 mm
01:36 AM 59.9°F15.5°C 41.8°F5.4°C 51% 2.0 mph NNE3.2 kmh NNE 2.0 mph3.2 kmh 29.23 in989.8 mb 0.00 in0.0 mm 0.00 in0.0 mm 0.00 in0.0 mm
01:35 AM 60.1°F15.6°C 41.9°F5.5°C 51% Calm Calm -- 29.26 in990.9 mb 0.00 in0.0 mm 0.00 in0.0 mm 0.00 in0.0 mm
01:34 AM 60.1°F15.6°C 42.4°F5.8°C 52% 3.4 mph W5.5 kmh W 3.4 mph5.5 kmh 29.26 in990.9 mb 0.00 in0.0 mm 0.00 in0.0 mm 0.00 in0.0 mm
01:33 AM 60.3°F15.7°C 42.6°F5.9°C 52% 3.1 mph WSW5.0 kmh WSW 3.4 mph5.5 kmh 29.26 in990.9 mb 0.00 in0.0 mm 0.00 in0.0 mm 0.00 in0.0 mm
01:32 AM 60.3°F15.7°C 42.6°F5.9°C 52% 1.1 mph NNW1.8 kmh NNW 1.6 mph2.6 kmh 29.26 in990.9 mb 0.00 in0.0 mm 0.00 in0.0 mm 0.00 in0.0 mm
01:31 AM 60.4°F15.8°C 42.8°F6.0°C 52% 2.5 mph NNW4.0 kmh NNW 3.8 mph6.1 kmh 29.26 in990.9 mb 0.00 in0.0 mm 0.00 in0.0 mm 0.00 in0.0 mm
01:30 AM 60.4°F15.8°C 42.8°F6.0°C 52% 3.1 mph NNW5.0 kmh NNW 3.1 mph5.0 kmh 29.26 in990.9 mb 0.00 in0.0 mm 0.00 in0.0 mm 0.00 in0.0 mm
01:29 AM 60.6°F15.9°C 42.9°F6.1°C 52% 4.9 mph SSE7.9 kmh SSE 6.0 mph9.7 kmh 29.26 in990.9 mb 0.00 in0.0 mm 0.00 in0.0 mm 0.00 in0.0 mm
01:28 AM 60.6°F15.9°C 42.4°F5.8°C 51% 2.0 mph SW3.2 kmh SW 6.5 mph10.5 kmh 29.26 in990.9 mb 0.00 in0.0 mm 0.00 in0.0 mm 0.00 in0.0 mm
01:27 AM 60.6°F15.9°C 42.4°F5.8°C 51% 1.3 mph SSW2.1 kmh SSW 2.9 mph4.7 kmh 29.26 in990.9 mb 0.00 in0.0 mm 0.00 in0.0 mm 0.00 in0.0 mm
01:26 AM 60.6°F15.9°C 42.4°F5.8°C 51% 2.0 mph S3.2 kmh S 2.0 mph3.2 kmh 29.26 in990.9 mb 0.00 in0.0 mm 0.00 in0.0 mm 0.00 in0.0 mm
01:25 AM 60.6°F15.9°C 42.4°F5.8°C 51% 1.1 mph SSW1.8 kmh SSW 2.7 mph4.3 kmh 29.26 in990.9 mb 0.00 in0.0 mm 0.00 in0.0 mm 0.00 in0.0 mm
01:24 AM 60.6°F15.9°C 42.4°F5.8°C 51% 2.0 mph SSW3.2 kmh SSW 2.0 mph3.2 kmh 29.26 in990.9 mb 0.00 in0.0 mm 0.00 in0.0 mm 0.00 in0.0 mm
01:23 AM 60.6°F15.9°C 42.4°F5.8°C 51% Calm Calm 0.9 mph1.4 kmh 29.26 in990.9 mb 0.00 in0.0 mm 0.00 in0.0 mm 0.00 in0.0 mm
01:22 AM 60.6°F15.9°C 42.4°F5.8°C 51% Calm Calm -- 29.26 in990.9 mb 0.00 in0.0 mm 0.00 in0.0 mm 0.00 in0.0 mm
01:21 AM 60.6°F15.9°C 42.4°F5.8°C 51% Calm Calm 0.9 mph1.4 kmh 29.26 in990.9 mb 0.00 in0.0 mm 0.00 in0.0 mm 0.00 in0.0 mm
01:20 AM 60.6°F15.9°C 42.4°F5.8°C 51% 0.9 mph WSW1.4 kmh WSW 0.9 mph1.4 kmh 29.23 in989.8 mb 0.00 in0.0 mm 0.00 in0.0 mm 0.00 in0.0 mm
01:19 AM 60.6°F15.9°C 42.4°F5.8°C 51% Calm Calm 1.3 mph2.1 kmh 29.23 in989.8 mb 0.00 in0.0 mm 0.00 in0.0 mm 0.00 in0.0 mm
01:18 AM 60.6°F15.9°C 42.4°F5.8°C 51% 1.3 mph S2.1 kmh S 1.3 mph2.1 kmh 29.23 in989.8 mb 0.00 in0.0 mm 0.00 in0.0 mm 0.00 in0.0 mm
01:17 AM 60.6°F15.9°C 42.4°F5.8°C 51% 0.9 mph SSE1.4 kmh SSE 0.9 mph1.4 kmh 29.23 in989.8 mb 0.00 in0.0 mm 0.00 in0.0 mm 0.00 in0.0 mm
01:16 AM 60.6°F15.9°C 42.4°F5.8°C 51% 1.3 mph ESE2.1 kmh ESE 1.3 mph2.1 kmh 29.23 in989.8 mb 0.00 in0.0 mm 0.00 in0.0 mm 0.00 in0.0 mm
01:15 AM 60.8°F16.0°C 42.6°F5.9°C 51% Calm Calm -- 29.23 in989.8 mb 0.00 in0.0 mm 0.00 in0.0 mm 0.00 in0.0 mm
01:14 AM 60.8°F16.0°C 42.6°F5.9°C 51% 0.9 mph WSW1.4 kmh WSW 1.1 mph1.8 kmh 29.23 in989.8 mb 0.00 in0.0 mm 0.00 in0.0 mm 0.00 in0.0 mm
01:13 AM 60.8°F16.0°C 42.6°F5.9°C 51% Calm Calm -- 29.23 in989.8 mb 0.00 in0.0 mm 0.00 in0.0 mm 0.00 in0.0 mm
01:12 AM 60.8°F16.0°C 42.6°F5.9°C 51% Calm Calm -- 29.23 in989.8 mb 0.00 in0.0 mm 0.00 in0.0 mm 0.00 in0.0 mm
01:10 AM 60.8°F16.0°C 42.6°F5.9°C 51% 1.3 mph NNE2.1 kmh NNE 1.6 mph2.6 kmh 29.23 in989.8 mb 0.00 in0.0 mm 0.00 in0.0 mm 0.00 in0.0 mm
01:09 AM 60.8°F16.0°C 42.6°F5.9°C 51% Calm Calm -- 29.23 in989.8 mb 0.00 in0.0 mm 0.00 in0.0 mm 0.00 in0.0 mm
01:08 AM 60.8°F16.0°C 42.6°F5.9°C 51% 1.3 mph NNE2.1 kmh NNE 2.0 mph3.2 kmh 29.23 in989.8 mb 0.00 in0.0 mm 0.00 in0.0 mm 0.00 in0.0 mm
01:07 AM 60.8°F16.0°C 42.6°F5.9°C 51% 0.9 mph SSW1.4 kmh SSW 0.9 mph1.4 kmh 29.23 in989.8 mb 0.00 in0.0 mm 0.00 in0.0 mm 0.00 in0.0 mm
01:06 AM 60.8°F16.0°C 42.6°F5.9°C 51% Calm Calm -- 29.23 in989.8 mb 0.00 in0.0 mm 0.00 in0.0 mm 0.00 in0.0 mm
01:05 AM 60.8°F16.0°C 42.6°F5.9°C 51% 1.6 mph SSW2.6 kmh SSW 2.0 mph3.2 kmh 29.23 in989.8 mb 0.00 in0.0 mm 0.00 in0.0 mm 0.00 in0.0 mm
01:04 AM 60.8°F16.0°C 42.6°F5.9°C 51% 1.1 mph WNW1.8 kmh WNW 1.1 mph1.8 kmh 29.23 in989.8 mb 0.00 in0.0 mm 0.00 in0.0 mm 0.00 in0.0 mm
01:03 AM 60.8°F16.0°C 42.6°F5.9°C 51% Calm Calm -- 29.23 in989.8 mb 0.00 in0.0 mm 0.00 in0.0 mm 0.00 in0.0 mm
01:02 AM 60.8°F16.0°C 42.1°F5.6°C 50% Calm Calm -- 29.23 in989.8 mb 0.00 in0.0 mm 0.00 in0.0 mm 0.00 in0.0 mm
01:01 AM 60.8°F16.0°C 42.1°F5.6°C 50% Calm Calm -- 29.23 in989.8 mb 0.00 in0.0 mm 0.00 in0.0 mm 0.00 in0.0 mm
01:00 AM 60.8°F16.0°C 42.1°F5.6°C 50% Calm Calm 1.6 mph2.6 kmh 29.23 in989.8 mb 0.00 in0.0 mm 0.00 in0.0 mm 0.00 in0.0 mm
12:59 AM 60.8°F16.0°C 42.1°F5.6°C 50% 2.2 mph SSW3.5 kmh SSW 2.5 mph4.0 kmh 29.23 in989.8 mb 0.00 in0.0 mm 0.00 in0.0 mm 0.00 in0.0 mm
12:58 AM 60.8°F16.0°C 42.1°F5.6°C 50% 1.1 mph SSW1.8 kmh SSW 1.1 mph1.8 kmh 29.23 in989.8 mb 0.00 in0.0 mm 0.00 in0.0 mm 0.00 in0.0 mm
12:57 AM 60.8°F16.0°C 42.1°F5.6°C 50% Calm Calm -- 29.23 in989.8 mb 0.00 in0.0 mm 0.00 in0.0 mm 0.00 in0.0 mm
12:56 AM 60.8°F16.0°C 42.1°F5.6°C 50% Calm Calm -- 29.23 in989.8 mb 0.00 in0.0 mm 0.00 in0.0 mm 0.00 in0.0 mm
12:54 AM 60.8°F16.0°C 42.1°F5.6°C 50% 1.3 mph WNW2.1 kmh WNW 1.3 mph2.1 kmh 29.23 in989.8 mb 0.00 in0.0 mm 0.00 in0.0 mm 0.00 in0.0 mm
12:52 AM 60.8°F16.0°C 42.1°F5.6°C 50% 1.1 mph WSW1.8 kmh WSW 1.1 mph1.8 kmh 29.23 in989.8 mb 0.00 in0.0 mm 0.00 in0.0 mm 0.00 in0.0 mm
12:51 AM 61.0°F16.1°C 42.2°F5.7°C 50% Calm Calm -- 29.23 in989.8 mb 0.00 in0.0 mm 0.00 in0.0 mm 0.00 in0.0 mm
12:50 AM 61.0°F16.1°C 42.2°F5.7°C 50% Calm Calm 1.1 mph1.8 kmh 29.23 in989.8 mb 0.00 in0.0 mm 0.00 in0.0 mm 0.00 in0.0 mm
12:49 AM 61.0°F16.1°C 42.2°F5.7°C 50% Calm Calm -- 29.23 in989.8 mb 0.00 in0.0 mm 0.00 in0.0 mm 0.00 in0.0 mm
12:47 AM 61.0°F16.1°C 42.2°F5.7°C 50% Calm Calm -- 29.23 in989.8 mb 0.00 in0.0 mm 0.00 in0.0 mm 0.00 in0.0 mm
12:46 AM 61.0°F16.1°C 42.2°F5.7°C 50% Calm Calm -- 29.23 in989.8 mb 0.00 in0.0 mm 0.00 in0.0 mm 0.00 in0.0 mm
12:44 AM 61.0°F16.1°C 42.2°F5.7°C 50% Calm Calm -- 29.23 in989.8 mb 0.00 in0.0 mm 0.00 in0.0 mm 0.00 in0.0 mm
12:42 AM 61.0°F16.1°C 42.2°F5.7°C 50% Calm Calm 0.9 mph1.4 kmh 29.23 in989.8 mb 0.00 in0.0 mm 0.00 in0.0 mm 0.00 in0.0 mm
12:41 AM 61.0°F16.1°C 42.2°F5.7°C 50% Calm Calm -- 29.23 in989.8 mb 0.00 in0.0 mm 0.00 in0.0 mm 0.00 in0.0 mm
12:40 AM 61.0°F16.1°C 42.2°F5.7°C 50% Calm Calm 1.1 mph1.8 kmh 29.23 in989.8 mb 0.00 in0.0 mm 0.00 in0.0 mm 0.00 in0.0 mm
12:39 AM 61.0°F16.1°C 42.2°F5.7°C 50% Calm Calm -- 29.23 in989.8 mb 0.00 in0.0 mm 0.00 in0.0 mm 0.00 in0.0 mm
12:38 AM 61.0°F16.1°C 42.2°F5.7°C 50% Calm Calm -- 29.23 in989.8 mb 0.00 in0.0 mm 0.00 in0.0 mm 0.00 in0.0 mm
12:37 AM 61.0°F16.1°C 42.2°F5.7°C 50% Calm Calm -- 29.23 in989.8 mb 0.00 in0.0 mm 0.00 in0.0 mm 0.00 in0.0 mm
12:36 AM 61.0°F16.1°C 42.2°F5.7°C 50% Calm Calm 1.1 mph1.8 kmh 29.23 in989.8 mb 0.00 in0.0 mm 0.00 in0.0 mm 0.00 in0.0 mm
12:35 AM 61.0°F16.1°C 42.2°F5.7°C 50% Calm Calm -- 29.26 in990.9 mb 0.00 in0.0 mm 0.00 in0.0 mm 0.00 in0.0 mm
12:34 AM 61.0°F16.1°C 42.2°F5.7°C 50% Calm Calm -- 29.26 in990.9 mb 0.00 in0.0 mm 0.00 in0.0 mm 0.00 in0.0 mm
12:33 AM 61.0°F16.1°C 42.2°F5.7°C 50% Calm Calm -- 29.26 in990.9 mb 0.00 in0.0 mm 0.00 in0.0 mm 0.00 in0.0 mm
12:32 AM 61.0°F16.1°C 42.2°F5.7°C 50% 1.1 mph NW1.8 kmh NW 1.1 mph1.8 kmh 29.26 in990.9 mb 0.00 in0.0 mm 0.00 in0.0 mm 0.00 in0.0 mm
12:31 AM 61.0°F16.1°C 42.2°F5.7°C 50% Calm Calm -- 29.26 in990.9 mb 0.00 in0.0 mm 0.00 in0.0 mm 0.00 in0.0 mm
12:30 AM 61.0°F16.1°C 42.2°F5.7°C 50% Calm Calm -- 29.26 in990.9 mb 0.00 in0.0 mm 0.00 in0.0 mm 0.00 in0.0 mm
12:29 AM 60.8°F16.0°C 42.1°F5.6°C 50% Calm Calm -- 29.26 in990.9 mb 0.00 in0.0 mm 0.00 in0.0 mm 0.00 in0.0 mm
12:28 AM 61.0°F16.1°C 42.2°F5.7°C 50% 1.1 mph NNE1.8 kmh NNE 1.1 mph1.8 kmh 29.26 in990.9 mb 0.00 in0.0 mm 0.00 in0.0 mm 0.00 in0.0 mm
12:27 AM 61.0°F16.1°C 42.2°F5.7°C 50% Calm Calm -- 29.26 in990.9 mb 0.00 in0.0 mm 0.00 in0.0 mm 0.00 in0.0 mm
12:26 AM 61.0°F16.1°C 42.2°F5.7°C 50% Calm Calm 1.1 mph1.8 kmh 29.26 in990.9 mb 0.00 in0.0 mm 0.00 in0.0 mm 0.00 in0.0 mm
12:25 AM 61.0°F16.1°C 42.2°F5.7°C 50% Calm Calm 0.9 mph1.4 kmh 29.26 in990.9 mb 0.00 in0.0 mm 0.00 in0.0 mm 0.00 in0.0 mm
12:24 AM 61.0°F16.1°C 42.2°F5.7°C 50% Calm Calm -- 29.26 in990.9 mb 0.00 in0.0 mm 0.00 in0.0 mm 0.00 in0.0 mm
12:23 AM 61.0°F16.1°C 42.2°F5.7°C 50% 1.1 mph SW1.8 kmh SW 1.1 mph1.8 kmh 29.26 in990.9 mb 0.00 in0.0 mm 0.00 in0.0 mm 0.00 in0.0 mm
12:21 AM 60.8°F16.0°C 42.1°F5.6°C 50% 1.1 mph WSW1.8 kmh WSW 1.1 mph1.8 kmh 29.26 in990.9 mb 0.00 in0.0 mm 0.00 in0.0 mm 0.00 in0.0 mm
12:20 AM 60.8°F16.0°C 42.1°F5.6°C 50% Calm Calm -- 29.26 in990.9 mb 0.00 in0.0 mm 0.00 in0.0 mm 0.00 in0.0 mm
12:19 AM 60.8°F16.0°C 42.1°F5.6°C 50% Calm Calm -- 29.26 in990.9 mb 0.00 in0.0 mm 0.00 in0.0 mm 0.00 in0.0 mm
12:18 AM 60.8°F16.0°C 42.1°F5.6°C 50% Calm Calm -- 29.26 in990.9 mb 0.00 in0.0 mm 0.00 in0.0 mm 0.00 in0.0 mm
12:17 AM 60.8°F16.0°C 42.1°F5.6°C 50% Calm Calm -- 29.26 in990.9 mb 0.00 in0.0 mm 0.00 in0.0 mm 0.00 in0.0 mm
12:16 AM 60.8°F16.0°C 42.1°F5.6°C 50% Calm Calm -- 29.26 in990.9 mb 0.00 in0.0 mm 0.00 in0.0 mm 0.00 in0.0 mm
12:15 AM 60.8°F16.0°C 42.1°F5.6°C 50% Calm Calm -- 29.26 in990.9 mb 0.00 in0.0 mm 0.00 in0.0 mm 0.00 in0.0 mm
12:14 AM 60.8°F16.0°C 42.1°F5.6°C 50% Calm Calm -- 29.26 in990.9 mb 0.00 in0.0 mm 0.00 in0.0 mm 0.00 in0.0 mm
12:12 AM 60.8°F16.0°C 42.1°F5.6°C 50% Calm Calm -- 29.26 in990.9 mb 0.00 in0.0 mm 0.00 in0.0 mm 0.00 in0.0 mm
12:11 AM 60.8°F16.0°C 42.1°F5.6°C 50% Calm Calm -- 29.26 in990.9 mb 0.00 in0.0 mm 0.00 in0.0 mm 0.00 in0.0 mm
12:10 AM 60.8°F16.0°C 42.1°F5.6°C 50% Calm Calm -- 29.26 in990.9 mb 0.00 in0.0 mm 0.00 in0.0 mm 0.00 in0.0 mm
12:09 AM 60.8°F16.0°C 42.1°F5.6°C 50% Calm Calm 0.9 mph1.4 kmh 29.26 in990.9 mb 0.00 in0.0 mm 0.00 in0.0 mm 0.00 in0.0 mm
12:08 AM 60.8°F16.0°C 42.1°F5.6°C 50% Calm Calm -- 29.26 in990.9 mb 0.00 in0.0 mm 0.00 in0.0 mm 0.00 in0.0 mm
12:07 AM 60.8°F16.0°C 42.1°F5.6°C 50% Calm Calm -- 29.26 in990.9 mb 0.00 in0.0 mm 0.00 in0.0 mm 0.00 in0.0 mm
12:06 AM 60.8°F16.0°C 42.1°F5.6°C 50% Calm Calm -- 29.26 in990.9 mb 0.00 in0.0 mm 0.00 in0.0 mm 0.00 in0.0 mm
12:05 AM 60.8°F16.0°C 41.5°F5.3°C 49% Calm Calm -- 29.26 in990.9 mb 0.00 in0.0 mm 0.00 in0.0 mm 0.00 in0.0 mm
12:04 AM 60.8°F16.0°C 41.5°F5.3°C 49% Calm Calm -- 29.26 in990.9 mb 0.00 in0.0 mm 0.00 in0.0 mm 0.00 in0.0 mm
12:03 AM 60.8°F16.0°C 41.5°F5.3°C 49% Calm Calm -- 29.26 in990.9 mb 0.00 in0.0 mm 0.00 in0.0 mm 0.00 in0.0 mm
12:02 AM 60.8°F16.0°C 41.5°F5.3°C 49% Calm Calm 0.9 mph1.4 kmh 29.26 in990.9 mb 0.00 in0.0 mm 0.00 in0.0 mm 0.00 in0.0 mm
12:01 AM 60.8°F16.0°C 41.5°F5.3°C 49% 0.9 mph ENE1.4 kmh ENE 0.9 mph1.4 kmh 29.26 in990.9 mb 0.00 in0.0 mm 0.00 in0.0 mm 0.00 in0.0 mm
12:00 AM 60.8°F16.0°C 41.5°F5.3°C 49% Calm Calm -- 29.26 in990.9 mb 0.00 in0.0 mm 0.00 in0.0 mm 0.00 in0.0 mm